<?xml version="1.0" encoding="UTF-8" standalone="no" ?>
<gpx xmlns="http://www.topografix.com/GPX/1/1" xmlns:xsi="http://www.w3.org/2001/XMLSchema-instance" xsi:schemaLocation="http://www.topografix.com/GPX/1/1 http://www.topografix.com/GPX/1/1/gpx.xsd" version="1.1" creator="VisuGPX - https://www.visugpx.com">
  <metadata>
    <name>sapin president</name>
    <desc><![CDATA[mouthe 2013 jour1]]></desc>
  </metadata>
  <trk>
    <name><![CDATA[sapin president]]></name>
    <trkseg>
      <trkpt lat="46.84703" lon="6.00644">
        <ele>674.021484</ele>
        <time>2013-05-13T12:46:34Z</time>
      </trkpt>
      <trkpt lat="46.84703" lon="6.00644">
        <ele>674.021484</ele>
        <time>2013-05-13T12:46:35Z</time>
      </trkpt>
      <trkpt lat="46.84703" lon="6.00644">
        <ele>677.38623</ele>
        <time>2013-05-13T12:46:39Z</time>
      </trkpt>
      <trkpt lat="46.84703" lon="6.00644">
        <ele>681.231445</ele>
        <time>2013-05-13T12:46:42Z</time>
      </trkpt>
      <trkpt lat="46.84703" lon="6.00644">
        <ele>684.115479</ele>
        <time>2013-05-13T12:46:44Z</time>
      </trkpt>
      <trkpt lat="46.84703" lon="6.00644">
        <ele>684.596191</ele>
        <time>2013-05-13T12:46:45Z</time>
      </trkpt>
      <trkpt lat="46.84703" lon="6.00644">
        <ele>686.038086</ele>
        <time>2013-05-13T12:46:47Z</time>
      </trkpt>
      <trkpt lat="46.84703" lon="6.00644">
        <ele>688.922119</ele>
        <time>2013-05-13T12:46:49Z</time>
      </trkpt>
      <trkpt lat="46.84703" lon="6.00644">
        <ele>692.286621</ele>
        <time>2013-05-13T12:46:53Z</time>
      </trkpt>
      <trkpt lat="46.84703" lon="6.00644">
        <ele>717.281006</ele>
        <time>2013-05-13T12:46:55Z</time>
      </trkpt>
      <trkpt lat="46.84703" lon="6.00644">
        <ele>717.281006</ele>
        <time>2013-05-13T12:46:56Z</time>
      </trkpt>
      <trkpt lat="46.84703" lon="6.00644">
        <ele>717.761475</ele>
        <time>2013-05-13T12:46:59Z</time>
      </trkpt>
      <trkpt lat="46.84686" lon="6.00655">
        <ele>718.242188</ele>
        <time>2013-05-13T12:47:14Z</time>
      </trkpt>
      <trkpt lat="46.84684" lon="6.00654">
        <ele>718.7229</ele>
        <time>2013-05-13T12:47:15Z</time>
      </trkpt>
      <trkpt lat="46.84679" lon="6.0065">
        <ele>718.7229</ele>
        <time>2013-05-13T12:47:19Z</time>
      </trkpt>
      <trkpt lat="46.84668" lon="6.00644">
        <ele>718.7229</ele>
        <time>2013-05-13T12:47:28Z</time>
      </trkpt>
      <trkpt lat="46.84648" lon="6.00639">
        <ele>718.242188</ele>
        <time>2013-05-13T12:47:43Z</time>
      </trkpt>
      <trkpt lat="46.84631" lon="6.00633">
        <ele>720.645508</ele>
        <time>2013-05-13T12:48:10Z</time>
      </trkpt>
      <trkpt lat="46.84618" lon="6.00631">
        <ele>721.126221</ele>
        <time>2013-05-13T12:48:27Z</time>
      </trkpt>
      <trkpt lat="46.84611" lon="6.0062">
        <ele>721.606689</ele>
        <time>2013-05-13T12:48:39Z</time>
      </trkpt>
      <trkpt lat="46.84601" lon="6.00621">
        <ele>721.126221</ele>
        <time>2013-05-13T12:48:52Z</time>
      </trkpt>
      <trkpt lat="46.84594" lon="6.00622">
        <ele>722.087402</ele>
        <time>2013-05-13T12:49:08Z</time>
      </trkpt>
      <trkpt lat="46.84597" lon="6.00619">
        <ele>721.126221</ele>
        <time>2013-05-13T12:49:23Z</time>
      </trkpt>
      <trkpt lat="46.84597" lon="6.00627">
        <ele>721.126221</ele>
        <time>2013-05-13T12:49:44Z</time>
      </trkpt>
      <trkpt lat="46.84597" lon="6.0063">
        <ele>721.126221</ele>
        <time>2013-05-13T12:49:47Z</time>
      </trkpt>
      <trkpt lat="46.84598" lon="6.00638">
        <ele>721.126221</ele>
        <time>2013-05-13T12:49:53Z</time>
      </trkpt>
      <trkpt lat="46.846" lon="6.00644">
        <ele>721.126221</ele>
        <time>2013-05-13T12:49:59Z</time>
      </trkpt>
      <trkpt lat="46.84602" lon="6.00677">
        <ele>722.087402</ele>
        <time>2013-05-13T12:50:19Z</time>
      </trkpt>
      <trkpt lat="46.84606" lon="6.00692">
        <ele>720.645508</ele>
        <time>2013-05-13T12:50:30Z</time>
      </trkpt>
      <trkpt lat="46.84608" lon="6.00701">
        <ele>722.568115</ele>
        <time>2013-05-13T12:50:36Z</time>
      </trkpt>
      <trkpt lat="46.84611" lon="6.00719">
        <ele>725.451904</ele>
        <time>2013-05-13T12:50:46Z</time>
      </trkpt>
      <trkpt lat="46.84611" lon="6.00725">
        <ele>723.048828</ele>
        <time>2013-05-13T12:50:49Z</time>
      </trkpt>
      <trkpt lat="46.84614" lon="6.0073">
        <ele>722.568115</ele>
        <time>2013-05-13T12:50:50Z</time>
      </trkpt>
      <trkpt lat="46.84614" lon="6.00738">
        <ele>725.451904</ele>
        <time>2013-05-13T12:50:55Z</time>
      </trkpt>
      <trkpt lat="46.84616" lon="6.00745">
        <ele>721.606689</ele>
        <time>2013-05-13T12:50:58Z</time>
      </trkpt>
      <trkpt lat="46.84617" lon="6.00747">
        <ele>721.606689</ele>
        <time>2013-05-13T12:50:59Z</time>
      </trkpt>
      <trkpt lat="46.84618" lon="6.0075">
        <ele>724.01001</ele>
        <time>2013-05-13T12:51:01Z</time>
      </trkpt>
      <trkpt lat="46.84621" lon="6.00764">
        <ele>723.529541</ele>
        <time>2013-05-13T12:51:06Z</time>
      </trkpt>
      <trkpt lat="46.84622" lon="6.00776">
        <ele>723.048828</ele>
        <time>2013-05-13T12:51:13Z</time>
      </trkpt>
      <trkpt lat="46.84623" lon="6.0078">
        <ele>722.087402</ele>
        <time>2013-05-13T12:51:16Z</time>
      </trkpt>
      <trkpt lat="46.84625" lon="6.00786">
        <ele>723.529541</ele>
        <time>2013-05-13T12:51:19Z</time>
      </trkpt>
      <trkpt lat="46.84625" lon="6.00791">
        <ele>721.606689</ele>
        <time>2013-05-13T12:51:22Z</time>
      </trkpt>
      <trkpt lat="46.84621" lon="6.00805">
        <ele>722.087402</ele>
        <time>2013-05-13T12:51:28Z</time>
      </trkpt>
      <trkpt lat="46.84612" lon="6.00833">
        <ele>722.568115</ele>
        <time>2013-05-13T12:51:41Z</time>
      </trkpt>
      <trkpt lat="46.84607" lon="6.00862">
        <ele>725.932617</ele>
        <time>2013-05-13T12:52:00Z</time>
      </trkpt>
      <trkpt lat="46.84608" lon="6.00867">
        <ele>726.894043</ele>
        <time>2013-05-13T12:52:04Z</time>
      </trkpt>
      <trkpt lat="46.8461" lon="6.00886">
        <ele>728.335938</ele>
        <time>2013-05-13T12:52:18Z</time>
      </trkpt>
      <trkpt lat="46.84615" lon="6.00906">
        <ele>731.700439</ele>
        <time>2013-05-13T12:52:32Z</time>
      </trkpt>
      <trkpt lat="46.84617" lon="6.00915">
        <ele>732.662109</ele>
        <time>2013-05-13T12:52:40Z</time>
      </trkpt>
      <trkpt lat="46.8462" lon="6.00932">
        <ele>734.584717</ele>
        <time>2013-05-13T12:52:52Z</time>
      </trkpt>
      <trkpt lat="46.8462" lon="6.00934">
        <ele>734.584717</ele>
        <time>2013-05-13T12:52:54Z</time>
      </trkpt>
      <trkpt lat="46.8462" lon="6.00953">
        <ele>737.468506</ele>
        <time>2013-05-13T12:53:10Z</time>
      </trkpt>
      <trkpt lat="46.8462" lon="6.0097">
        <ele>741.313721</ele>
        <time>2013-05-13T12:53:27Z</time>
      </trkpt>
      <trkpt lat="46.84621" lon="6.00971">
        <ele>740.833008</ele>
        <time>2013-05-13T12:53:28Z</time>
      </trkpt>
      <trkpt lat="46.84623" lon="6.00986">
        <ele>744.678223</ele>
        <time>2013-05-13T12:53:43Z</time>
      </trkpt>
      <trkpt lat="46.84623" lon="6.00988">
        <ele>743.717041</ele>
        <time>2013-05-13T12:53:46Z</time>
      </trkpt>
      <trkpt lat="46.84627" lon="6.00996">
        <ele>745.639648</ele>
        <time>2013-05-13T12:53:52Z</time>
      </trkpt>
      <trkpt lat="46.84633" lon="6.01015">
        <ele>749.004395</ele>
        <time>2013-05-13T12:54:08Z</time>
      </trkpt>
      <trkpt lat="46.84636" lon="6.01027">
        <ele>749.96582</ele>
        <time>2013-05-13T12:54:21Z</time>
      </trkpt>
      <trkpt lat="46.84635" lon="6.01029">
        <ele>750.927002</ele>
        <time>2013-05-13T12:54:22Z</time>
      </trkpt>
      <trkpt lat="46.84631" lon="6.01043">
        <ele>752.368896</ele>
        <time>2013-05-13T12:54:36Z</time>
      </trkpt>
      <trkpt lat="46.84643" lon="6.01066">
        <ele>752.849609</ele>
        <time>2013-05-13T12:54:57Z</time>
      </trkpt>
      <trkpt lat="46.84659" lon="6.01089">
        <ele>753.811035</ele>
        <time>2013-05-13T12:55:21Z</time>
      </trkpt>
      <trkpt lat="46.84666" lon="6.01116">
        <ele>755.25293</ele>
        <time>2013-05-13T12:55:37Z</time>
      </trkpt>
      <trkpt lat="46.84665" lon="6.01117">
        <ele>754.772217</ele>
        <time>2013-05-13T12:55:38Z</time>
      </trkpt>
      <trkpt lat="46.84664" lon="6.0112">
        <ele>755.25293</ele>
        <time>2013-05-13T12:55:41Z</time>
      </trkpt>
      <trkpt lat="46.84666" lon="6.01123">
        <ele>754.772217</ele>
        <time>2013-05-13T12:55:43Z</time>
      </trkpt>
      <trkpt lat="46.84665" lon="6.01143">
        <ele>756.694824</ele>
        <time>2013-05-13T12:55:56Z</time>
      </trkpt>
      <trkpt lat="46.84666" lon="6.01145">
        <ele>755.733643</ele>
        <time>2013-05-13T12:55:58Z</time>
      </trkpt>
      <trkpt lat="46.8467" lon="6.01154">
        <ele>755.733643</ele>
        <time>2013-05-13T12:56:05Z</time>
      </trkpt>
      <trkpt lat="46.84676" lon="6.0116">
        <ele>754.291748</ele>
        <time>2013-05-13T12:56:10Z</time>
      </trkpt>
      <trkpt lat="46.84686" lon="6.01184">
        <ele>756.214111</ele>
        <time>2013-05-13T12:56:28Z</time>
      </trkpt>
      <trkpt lat="46.84697" lon="6.01205">
        <ele>755.733643</ele>
        <time>2013-05-13T12:56:44Z</time>
      </trkpt>
      <trkpt lat="46.84709" lon="6.01221">
        <ele>757.65625</ele>
        <time>2013-05-13T12:57:00Z</time>
      </trkpt>
      <trkpt lat="46.84706" lon="6.01229">
        <ele>757.65625</ele>
        <time>2013-05-13T12:57:05Z</time>
      </trkpt>
      <trkpt lat="46.84699" lon="6.01238">
        <ele>758.617432</ele>
        <time>2013-05-13T12:57:12Z</time>
      </trkpt>
      <trkpt lat="46.8469" lon="6.01235">
        <ele>758.617432</ele>
        <time>2013-05-13T12:57:16Z</time>
      </trkpt>
      <trkpt lat="46.84684" lon="6.01231">
        <ele>759.098145</ele>
        <time>2013-05-13T12:57:19Z</time>
      </trkpt>
      <trkpt lat="46.84694" lon="6.01257">
        <ele>761.501465</ele>
        <time>2013-05-13T12:57:37Z</time>
      </trkpt>
      <trkpt lat="46.84696" lon="6.01269">
        <ele>764.385498</ele>
        <time>2013-05-13T12:57:57Z</time>
      </trkpt>
      <trkpt lat="46.84701" lon="6.01281">
        <ele>767.269531</ele>
        <time>2013-05-13T12:58:21Z</time>
      </trkpt>
      <trkpt lat="46.84705" lon="6.01287">
        <ele>770.634033</ele>
        <time>2013-05-13T12:58:38Z</time>
      </trkpt>
      <trkpt lat="46.84715" lon="6.01302">
        <ele>773.518066</ele>
        <time>2013-05-13T12:59:05Z</time>
      </trkpt>
      <trkpt lat="46.84721" lon="6.01313">
        <ele>776.401855</ele>
        <time>2013-05-13T12:59:25Z</time>
      </trkpt>
      <trkpt lat="46.84733" lon="6.01332">
        <ele>779.766357</ele>
        <time>2013-05-13T12:59:52Z</time>
      </trkpt>
      <trkpt lat="46.84745" lon="6.01355">
        <ele>783.131104</ele>
        <time>2013-05-13T13:00:26Z</time>
      </trkpt>
      <trkpt lat="46.84729" lon="6.01363">
        <ele>786.49585</ele>
        <time>2013-05-13T13:00:52Z</time>
      </trkpt>
      <trkpt lat="46.84724" lon="6.01367">
        <ele>787.457031</ele>
        <time>2013-05-13T13:00:59Z</time>
      </trkpt>
      <trkpt lat="46.84709" lon="6.01364">
        <ele>787.937744</ele>
        <time>2013-05-13T13:01:19Z</time>
      </trkpt>
      <trkpt lat="46.84693" lon="6.01371">
        <ele>789.379639</ele>
        <time>2013-05-13T13:01:38Z</time>
      </trkpt>
      <trkpt lat="46.84684" lon="6.01386">
        <ele>792.744385</ele>
        <time>2013-05-13T13:01:58Z</time>
      </trkpt>
      <trkpt lat="46.8468" lon="6.01401">
        <ele>795.628174</ele>
        <time>2013-05-13T13:02:20Z</time>
      </trkpt>
      <trkpt lat="46.8467" lon="6.01427">
        <ele>798.031738</ele>
        <time>2013-05-13T13:02:45Z</time>
      </trkpt>
      <trkpt lat="46.84667" lon="6.01437">
        <ele>798.512207</ele>
        <time>2013-05-13T13:03:07Z</time>
      </trkpt>
      <trkpt lat="46.84672" lon="6.01447">
        <ele>798.99292</ele>
        <time>2013-05-13T13:04:17Z</time>
      </trkpt>
      <trkpt lat="46.84674" lon="6.01467">
        <ele>799.954346</ele>
        <time>2013-05-13T13:04:34Z</time>
      </trkpt>
      <trkpt lat="46.84681" lon="6.01491">
        <ele>799.954346</ele>
        <time>2013-05-13T13:04:50Z</time>
      </trkpt>
      <trkpt lat="46.84687" lon="6.01518">
        <ele>800.915527</ele>
        <time>2013-05-13T13:05:07Z</time>
      </trkpt>
      <trkpt lat="46.84687" lon="6.01526">
        <ele>800.915527</ele>
        <time>2013-05-13T13:05:12Z</time>
      </trkpt>
      <trkpt lat="46.84689" lon="6.01551">
        <ele>801.39624</ele>
        <time>2013-05-13T13:05:24Z</time>
      </trkpt>
      <trkpt lat="46.84691" lon="6.01554">
        <ele>801.39624</ele>
        <time>2013-05-13T13:05:26Z</time>
      </trkpt>
      <trkpt lat="46.84688" lon="6.01583">
        <ele>801.876953</ele>
        <time>2013-05-13T13:05:44Z</time>
      </trkpt>
      <trkpt lat="46.84684" lon="6.01602">
        <ele>801.39624</ele>
        <time>2013-05-13T13:05:57Z</time>
      </trkpt>
      <trkpt lat="46.84686" lon="6.01637">
        <ele>802.838135</ele>
        <time>2013-05-13T13:06:16Z</time>
      </trkpt>
      <trkpt lat="46.84681" lon="6.01681">
        <ele>801.876953</ele>
        <time>2013-05-13T13:06:41Z</time>
      </trkpt>
      <trkpt lat="46.84674" lon="6.01721">
        <ele>802.357422</ele>
        <time>2013-05-13T13:07:02Z</time>
      </trkpt>
      <trkpt lat="46.84675" lon="6.01721">
        <ele>802.838135</ele>
        <time>2013-05-13T13:07:03Z</time>
      </trkpt>
      <trkpt lat="46.84675" lon="6.01722">
        <ele>802.357422</ele>
        <time>2013-05-13T13:07:05Z</time>
      </trkpt>
      <trkpt lat="46.84668" lon="6.01753">
        <ele>801.876953</ele>
        <time>2013-05-13T13:07:19Z</time>
      </trkpt>
      <trkpt lat="46.84668" lon="6.01758">
        <ele>802.357422</ele>
        <time>2013-05-13T13:07:23Z</time>
      </trkpt>
      <trkpt lat="46.84664" lon="6.01779">
        <ele>802.838135</ele>
        <time>2013-05-13T13:07:34Z</time>
      </trkpt>
      <trkpt lat="46.84658" lon="6.01805">
        <ele>803.799561</ele>
        <time>2013-05-13T13:07:49Z</time>
      </trkpt>
      <trkpt lat="46.84655" lon="6.01818">
        <ele>803.318848</ele>
        <time>2013-05-13T13:07:55Z</time>
      </trkpt>
      <trkpt lat="46.84648" lon="6.01849">
        <ele>803.318848</ele>
        <time>2013-05-13T13:08:13Z</time>
      </trkpt>
      <trkpt lat="46.84647" lon="6.01867">
        <ele>802.838135</ele>
        <time>2013-05-13T13:08:23Z</time>
      </trkpt>
      <trkpt lat="46.84644" lon="6.01891">
        <ele>803.318848</ele>
        <time>2013-05-13T13:08:37Z</time>
      </trkpt>
      <trkpt lat="46.8463" lon="6.01924">
        <ele>803.799561</ele>
        <time>2013-05-13T13:08:53Z</time>
      </trkpt>
      <trkpt lat="46.84629" lon="6.01947">
        <ele>803.799561</ele>
        <time>2013-05-13T13:09:08Z</time>
      </trkpt>
      <trkpt lat="46.84631" lon="6.01971">
        <ele>804.280273</ele>
        <time>2013-05-13T13:09:22Z</time>
      </trkpt>
      <trkpt lat="46.84624" lon="6.01998">
        <ele>804.280273</ele>
        <time>2013-05-13T13:09:41Z</time>
      </trkpt>
      <trkpt lat="46.84632" lon="6.02004">
        <ele>804.280273</ele>
        <time>2013-05-13T13:09:56Z</time>
      </trkpt>
      <trkpt lat="46.84644" lon="6.02014">
        <ele>804.760742</ele>
        <time>2013-05-13T13:10:33Z</time>
      </trkpt>
      <trkpt lat="46.84676" lon="6.02007">
        <ele>803.799561</ele>
        <time>2013-05-13T13:11:00Z</time>
      </trkpt>
      <trkpt lat="46.84681" lon="6.02006">
        <ele>804.280273</ele>
        <time>2013-05-13T13:11:02Z</time>
      </trkpt>
      <trkpt lat="46.84695" lon="6.02004">
        <ele>804.280273</ele>
        <time>2013-05-13T13:11:13Z</time>
      </trkpt>
      <trkpt lat="46.847" lon="6.02002">
        <ele>804.280273</ele>
        <time>2013-05-13T13:11:18Z</time>
      </trkpt>
      <trkpt lat="46.84713" lon="6.02">
        <ele>804.280273</ele>
        <time>2013-05-13T13:11:31Z</time>
      </trkpt>
      <trkpt lat="46.84746" lon="6.01995">
        <ele>805.241455</ele>
        <time>2013-05-13T13:11:53Z</time>
      </trkpt>
      <trkpt lat="46.84768" lon="6.01988">
        <ele>805.241455</ele>
        <time>2013-05-13T13:12:11Z</time>
      </trkpt>
      <trkpt lat="46.84785" lon="6.0199">
        <ele>805.722168</ele>
        <time>2013-05-13T13:12:25Z</time>
      </trkpt>
      <trkpt lat="46.84804" lon="6.01998">
        <ele>805.722168</ele>
        <time>2013-05-13T13:12:42Z</time>
      </trkpt>
      <trkpt lat="46.84827" lon="6.02011">
        <ele>805.241455</ele>
        <time>2013-05-13T13:12:58Z</time>
      </trkpt>
      <trkpt lat="46.84829" lon="6.02014">
        <ele>805.241455</ele>
        <time>2013-05-13T13:13:00Z</time>
      </trkpt>
      <trkpt lat="46.84834" lon="6.02018">
        <ele>806.202637</ele>
        <time>2013-05-13T13:13:04Z</time>
      </trkpt>
      <trkpt lat="46.84849" lon="6.02028">
        <ele>804.760742</ele>
        <time>2013-05-13T13:13:18Z</time>
      </trkpt>
      <trkpt lat="46.8485" lon="6.02029">
        <ele>804.760742</ele>
        <time>2013-05-13T13:13:20Z</time>
      </trkpt>
      <trkpt lat="46.84857" lon="6.02048">
        <ele>804.760742</ele>
        <time>2013-05-13T13:13:32Z</time>
      </trkpt>
      <trkpt lat="46.84865" lon="6.02062">
        <ele>804.760742</ele>
        <time>2013-05-13T13:13:43Z</time>
      </trkpt>
      <trkpt lat="46.84868" lon="6.02067">
        <ele>804.760742</ele>
        <time>2013-05-13T13:13:46Z</time>
      </trkpt>
      <trkpt lat="46.84882" lon="6.02092">
        <ele>805.241455</ele>
        <time>2013-05-13T13:14:06Z</time>
      </trkpt>
      <trkpt lat="46.84883" lon="6.02097">
        <ele>804.760742</ele>
        <time>2013-05-13T13:14:09Z</time>
      </trkpt>
      <trkpt lat="46.84886" lon="6.02106">
        <ele>804.760742</ele>
        <time>2013-05-13T13:14:13Z</time>
      </trkpt>
      <trkpt lat="46.849" lon="6.02122">
        <ele>804.280273</ele>
        <time>2013-05-13T13:14:27Z</time>
      </trkpt>
      <trkpt lat="46.84904" lon="6.02134">
        <ele>804.280273</ele>
        <time>2013-05-13T13:14:34Z</time>
      </trkpt>
      <trkpt lat="46.84906" lon="6.02136">
        <ele>803.799561</ele>
        <time>2013-05-13T13:14:36Z</time>
      </trkpt>
      <trkpt lat="46.84907" lon="6.02139">
        <ele>803.318848</ele>
        <time>2013-05-13T13:14:38Z</time>
      </trkpt>
      <trkpt lat="46.84915" lon="6.02162">
        <ele>803.318848</ele>
        <time>2013-05-13T13:14:53Z</time>
      </trkpt>
      <trkpt lat="46.84919" lon="6.02163">
        <ele>803.318848</ele>
        <time>2013-05-13T13:14:56Z</time>
      </trkpt>
      <trkpt lat="46.84921" lon="6.02173">
        <ele>803.799561</ele>
        <time>2013-05-13T13:15:02Z</time>
      </trkpt>
      <trkpt lat="46.84919" lon="6.0218">
        <ele>803.799561</ele>
        <time>2013-05-13T13:15:04Z</time>
      </trkpt>
      <trkpt lat="46.84919" lon="6.02187">
        <ele>803.318848</ele>
        <time>2013-05-13T13:15:08Z</time>
      </trkpt>
      <trkpt lat="46.8492" lon="6.02191">
        <ele>802.838135</ele>
        <time>2013-05-13T13:15:11Z</time>
      </trkpt>
      <trkpt lat="46.84925" lon="6.02206">
        <ele>802.838135</ele>
        <time>2013-05-13T13:15:22Z</time>
      </trkpt>
      <trkpt lat="46.84927" lon="6.02216">
        <ele>802.838135</ele>
        <time>2013-05-13T13:15:28Z</time>
      </trkpt>
      <trkpt lat="46.84934" lon="6.02229">
        <ele>802.357422</ele>
        <time>2013-05-13T13:15:36Z</time>
      </trkpt>
      <trkpt lat="46.84942" lon="6.02234">
        <ele>802.357422</ele>
        <time>2013-05-13T13:15:42Z</time>
      </trkpt>
      <trkpt lat="46.84948" lon="6.02254">
        <ele>801.876953</ele>
        <time>2013-05-13T13:15:56Z</time>
      </trkpt>
      <trkpt lat="46.8495" lon="6.02258">
        <ele>802.357422</ele>
        <time>2013-05-13T13:15:59Z</time>
      </trkpt>
      <trkpt lat="46.84955" lon="6.02265">
        <ele>801.876953</ele>
        <time>2013-05-13T13:16:05Z</time>
      </trkpt>
      <trkpt lat="46.84958" lon="6.0227">
        <ele>801.876953</ele>
        <time>2013-05-13T13:16:10Z</time>
      </trkpt>
      <trkpt lat="46.84956" lon="6.02285">
        <ele>801.876953</ele>
        <time>2013-05-13T13:16:16Z</time>
      </trkpt>
      <trkpt lat="46.8497" lon="6.02313">
        <ele>800.915527</ele>
        <time>2013-05-13T13:16:35Z</time>
      </trkpt>
      <trkpt lat="46.84973" lon="6.02316">
        <ele>801.39624</ele>
        <time>2013-05-13T13:16:38Z</time>
      </trkpt>
      <trkpt lat="46.84985" lon="6.02335">
        <ele>800.915527</ele>
        <time>2013-05-13T13:16:53Z</time>
      </trkpt>
      <trkpt lat="46.85009" lon="6.02358">
        <ele>800.915527</ele>
        <time>2013-05-13T13:17:11Z</time>
      </trkpt>
      <trkpt lat="46.85013" lon="6.02361">
        <ele>799.954346</ele>
        <time>2013-05-13T13:17:15Z</time>
      </trkpt>
      <trkpt lat="46.85016" lon="6.02363">
        <ele>799.954346</ele>
        <time>2013-05-13T13:17:17Z</time>
      </trkpt>
      <trkpt lat="46.85032" lon="6.02373">
        <ele>799.954346</ele>
        <time>2013-05-13T13:17:28Z</time>
      </trkpt>
      <trkpt lat="46.85035" lon="6.02374">
        <ele>799.954346</ele>
        <time>2013-05-13T13:17:31Z</time>
      </trkpt>
      <trkpt lat="46.85052" lon="6.02392">
        <ele>799.473633</ele>
        <time>2013-05-13T13:17:51Z</time>
      </trkpt>
      <trkpt lat="46.85068" lon="6.02406">
        <ele>799.473633</ele>
        <time>2013-05-13T13:18:02Z</time>
      </trkpt>
      <trkpt lat="46.8508" lon="6.02417">
        <ele>799.473633</ele>
        <time>2013-05-13T13:18:12Z</time>
      </trkpt>
      <trkpt lat="46.85097" lon="6.0243">
        <ele>799.473633</ele>
        <time>2013-05-13T13:18:30Z</time>
      </trkpt>
      <trkpt lat="46.85099" lon="6.02432">
        <ele>799.473633</ele>
        <time>2013-05-13T13:18:32Z</time>
      </trkpt>
      <trkpt lat="46.85115" lon="6.02447">
        <ele>799.473633</ele>
        <time>2013-05-13T13:18:47Z</time>
      </trkpt>
      <trkpt lat="46.85125" lon="6.02454">
        <ele>799.954346</ele>
        <time>2013-05-13T13:18:56Z</time>
      </trkpt>
      <trkpt lat="46.85139" lon="6.02464">
        <ele>799.954346</ele>
        <time>2013-05-13T13:19:10Z</time>
      </trkpt>
      <trkpt lat="46.85152" lon="6.02476">
        <ele>799.473633</ele>
        <time>2013-05-13T13:19:25Z</time>
      </trkpt>
      <trkpt lat="46.85172" lon="6.02485">
        <ele>799.473633</ele>
        <time>2013-05-13T13:19:44Z</time>
      </trkpt>
      <trkpt lat="46.85177" lon="6.02484">
        <ele>798.99292</ele>
        <time>2013-05-13T13:20:08Z</time>
      </trkpt>
      <trkpt lat="46.8519" lon="6.02487">
        <ele>798.512207</ele>
        <time>2013-05-13T13:21:05Z</time>
      </trkpt>
      <trkpt lat="46.85192" lon="6.02489">
        <ele>797.070313</ele>
        <time>2013-05-13T13:22:23Z</time>
      </trkpt>
      <trkpt lat="46.85199" lon="6.02493">
        <ele>797.070313</ele>
        <time>2013-05-13T13:23:36Z</time>
      </trkpt>
      <trkpt lat="46.85209" lon="6.02502">
        <ele>796.589844</ele>
        <time>2013-05-13T13:23:45Z</time>
      </trkpt>
      <trkpt lat="46.85213" lon="6.02503">
        <ele>796.589844</ele>
        <time>2013-05-13T13:23:47Z</time>
      </trkpt>
      <trkpt lat="46.85221" lon="6.02502">
        <ele>796.589844</ele>
        <time>2013-05-13T13:23:52Z</time>
      </trkpt>
      <trkpt lat="46.85223" lon="6.02505">
        <ele>796.589844</ele>
        <time>2013-05-13T13:23:54Z</time>
      </trkpt>
      <trkpt lat="46.85234" lon="6.02509">
        <ele>796.109131</ele>
        <time>2013-05-13T13:24:01Z</time>
      </trkpt>
      <trkpt lat="46.85239" lon="6.02508">
        <ele>796.589844</ele>
        <time>2013-05-13T13:24:04Z</time>
      </trkpt>
      <trkpt lat="46.8525" lon="6.02507">
        <ele>796.589844</ele>
        <time>2013-05-13T13:24:16Z</time>
      </trkpt>
      <trkpt lat="46.85264" lon="6.0251">
        <ele>796.589844</ele>
        <time>2013-05-13T13:24:33Z</time>
      </trkpt>
      <trkpt lat="46.8527" lon="6.02512">
        <ele>796.589844</ele>
        <time>2013-05-13T13:24:42Z</time>
      </trkpt>
      <trkpt lat="46.85281" lon="6.02504">
        <ele>797.551025</ele>
        <time>2013-05-13T13:24:57Z</time>
      </trkpt>
      <trkpt lat="46.85291" lon="6.02515">
        <ele>798.031738</ele>
        <time>2013-05-13T13:25:16Z</time>
      </trkpt>
      <trkpt lat="46.85307" lon="6.02514">
        <ele>798.99292</ele>
        <time>2013-05-13T13:25:30Z</time>
      </trkpt>
      <trkpt lat="46.85316" lon="6.02526">
        <ele>798.512207</ele>
        <time>2013-05-13T13:25:46Z</time>
      </trkpt>
      <trkpt lat="46.85322" lon="6.02535">
        <ele>798.99292</ele>
        <time>2013-05-13T13:25:58Z</time>
      </trkpt>
      <trkpt lat="46.85323" lon="6.02536">
        <ele>798.99292</ele>
        <time>2013-05-13T13:26:15Z</time>
      </trkpt>
      <trkpt lat="46.85326" lon="6.02542">
        <ele>798.99292</ele>
        <time>2013-05-13T13:26:31Z</time>
      </trkpt>
      <trkpt lat="46.85339" lon="6.02546">
        <ele>800.435059</ele>
        <time>2013-05-13T13:26:48Z</time>
      </trkpt>
      <trkpt lat="46.85346" lon="6.02544">
        <ele>800.435059</ele>
        <time>2013-05-13T13:26:55Z</time>
      </trkpt>
      <trkpt lat="46.85364" lon="6.02541">
        <ele>800.915527</ele>
        <time>2013-05-13T13:27:12Z</time>
      </trkpt>
      <trkpt lat="46.85383" lon="6.02541">
        <ele>801.876953</ele>
        <time>2013-05-13T13:27:29Z</time>
      </trkpt>
      <trkpt lat="46.85388" lon="6.0254">
        <ele>802.357422</ele>
        <time>2013-05-13T13:27:34Z</time>
      </trkpt>
      <trkpt lat="46.85409" lon="6.02542">
        <ele>801.876953</ele>
        <time>2013-05-13T13:27:52Z</time>
      </trkpt>
      <trkpt lat="46.85428" lon="6.02539">
        <ele>802.357422</ele>
        <time>2013-05-13T13:28:10Z</time>
      </trkpt>
      <trkpt lat="46.85449" lon="6.02543">
        <ele>802.357422</ele>
        <time>2013-05-13T13:28:29Z</time>
      </trkpt>
      <trkpt lat="46.8547" lon="6.02546">
        <ele>802.838135</ele>
        <time>2013-05-13T13:28:47Z</time>
      </trkpt>
      <trkpt lat="46.85484" lon="6.02554">
        <ele>801.876953</ele>
        <time>2013-05-13T13:29:02Z</time>
      </trkpt>
      <trkpt lat="46.85504" lon="6.02562">
        <ele>802.357422</ele>
        <time>2013-05-13T13:29:21Z</time>
      </trkpt>
      <trkpt lat="46.85519" lon="6.02573">
        <ele>802.357422</ele>
        <time>2013-05-13T13:29:35Z</time>
      </trkpt>
      <trkpt lat="46.85535" lon="6.02594">
        <ele>802.357422</ele>
        <time>2013-05-13T13:29:53Z</time>
      </trkpt>
      <trkpt lat="46.85547" lon="6.0261">
        <ele>801.39624</ele>
        <time>2013-05-13T13:30:06Z</time>
      </trkpt>
      <trkpt lat="46.85552" lon="6.02617">
        <ele>801.876953</ele>
        <time>2013-05-13T13:30:13Z</time>
      </trkpt>
      <trkpt lat="46.85567" lon="6.02639">
        <ele>800.915527</ele>
        <time>2013-05-13T13:30:30Z</time>
      </trkpt>
      <trkpt lat="46.85569" lon="6.02644">
        <ele>800.915527</ele>
        <time>2013-05-13T13:30:33Z</time>
      </trkpt>
      <trkpt lat="46.85581" lon="6.02662">
        <ele>800.435059</ele>
        <time>2013-05-13T13:30:47Z</time>
      </trkpt>
      <trkpt lat="46.85591" lon="6.02681">
        <ele>800.915527</ele>
        <time>2013-05-13T13:31:00Z</time>
      </trkpt>
      <trkpt lat="46.85606" lon="6.02695">
        <ele>799.954346</ele>
        <time>2013-05-13T13:31:13Z</time>
      </trkpt>
      <trkpt lat="46.85606" lon="6.02697">
        <ele>799.473633</ele>
        <time>2013-05-13T13:31:16Z</time>
      </trkpt>
      <trkpt lat="46.85624" lon="6.02709">
        <ele>799.473633</ele>
        <time>2013-05-13T13:31:31Z</time>
      </trkpt>
      <trkpt lat="46.85642" lon="6.02717">
        <ele>798.512207</ele>
        <time>2013-05-13T13:31:47Z</time>
      </trkpt>
      <trkpt lat="46.85652" lon="6.02721">
        <ele>798.512207</ele>
        <time>2013-05-13T13:31:59Z</time>
      </trkpt>
      <trkpt lat="46.85655" lon="6.02724">
        <ele>798.99292</ele>
        <time>2013-05-13T13:32:02Z</time>
      </trkpt>
      <trkpt lat="46.85676" lon="6.02733">
        <ele>799.473633</ele>
        <time>2013-05-13T13:32:21Z</time>
      </trkpt>
      <trkpt lat="46.85682" lon="6.02734">
        <ele>799.473633</ele>
        <time>2013-05-13T13:32:27Z</time>
      </trkpt>
      <trkpt lat="46.85694" lon="6.02732">
        <ele>800.435059</ele>
        <time>2013-05-13T13:32:42Z</time>
      </trkpt>
      <trkpt lat="46.85697" lon="6.02729">
        <ele>800.435059</ele>
        <time>2013-05-13T13:32:46Z</time>
      </trkpt>
      <trkpt lat="46.85708" lon="6.02728">
        <ele>800.435059</ele>
        <time>2013-05-13T13:33:09Z</time>
      </trkpt>
      <trkpt lat="46.85718" lon="6.02719">
        <ele>800.435059</ele>
        <time>2013-05-13T13:33:38Z</time>
      </trkpt>
      <trkpt lat="46.8574" lon="6.02717">
        <ele>798.512207</ele>
        <time>2013-05-13T13:33:57Z</time>
      </trkpt>
      <trkpt lat="46.85766" lon="6.02727">
        <ele>797.551025</ele>
        <time>2013-05-13T13:34:18Z</time>
      </trkpt>
      <trkpt lat="46.85786" lon="6.02735">
        <ele>796.589844</ele>
        <time>2013-05-13T13:34:36Z</time>
      </trkpt>
      <trkpt lat="46.85796" lon="6.02739">
        <ele>795.628174</ele>
        <time>2013-05-13T13:34:45Z</time>
      </trkpt>
      <trkpt lat="46.85804" lon="6.0274">
        <ele>795.147461</ele>
        <time>2013-05-13T13:34:51Z</time>
      </trkpt>
      <trkpt lat="46.8582" lon="6.02744">
        <ele>794.186279</ele>
        <time>2013-05-13T13:35:08Z</time>
      </trkpt>
      <trkpt lat="46.85824" lon="6.02744">
        <ele>794.186279</ele>
        <time>2013-05-13T13:35:12Z</time>
      </trkpt>
      <trkpt lat="46.85841" lon="6.02752">
        <ele>793.705566</ele>
        <time>2013-05-13T13:35:28Z</time>
      </trkpt>
      <trkpt lat="46.85847" lon="6.02756">
        <ele>793.705566</ele>
        <time>2013-05-13T13:35:35Z</time>
      </trkpt>
      <trkpt lat="46.85851" lon="6.02761">
        <ele>793.705566</ele>
        <time>2013-05-13T13:35:39Z</time>
      </trkpt>
      <trkpt lat="46.85858" lon="6.02768">
        <ele>793.224854</ele>
        <time>2013-05-13T13:35:50Z</time>
      </trkpt>
      <trkpt lat="46.85858" lon="6.02771">
        <ele>793.705566</ele>
        <time>2013-05-13T13:35:52Z</time>
      </trkpt>
      <trkpt lat="46.85865" lon="6.02783">
        <ele>793.224854</ele>
        <time>2013-05-13T13:36:05Z</time>
      </trkpt>
      <trkpt lat="46.85868" lon="6.02788">
        <ele>793.224854</ele>
        <time>2013-05-13T13:36:11Z</time>
      </trkpt>
      <trkpt lat="46.85866" lon="6.02795">
        <ele>793.705566</ele>
        <time>2013-05-13T13:36:13Z</time>
      </trkpt>
      <trkpt lat="46.85867" lon="6.02798">
        <ele>793.705566</ele>
        <time>2013-05-13T13:36:15Z</time>
      </trkpt>
      <trkpt lat="46.85871" lon="6.02807">
        <ele>793.705566</ele>
        <time>2013-05-13T13:36:24Z</time>
      </trkpt>
      <trkpt lat="46.85875" lon="6.02812">
        <ele>794.186279</ele>
        <time>2013-05-13T13:36:46Z</time>
      </trkpt>
      <trkpt lat="46.85882" lon="6.02817">
        <ele>794.186279</ele>
        <time>2013-05-13T13:36:58Z</time>
      </trkpt>
      <trkpt lat="46.85889" lon="6.02822">
        <ele>793.705566</ele>
        <time>2013-05-13T13:37:08Z</time>
      </trkpt>
      <trkpt lat="46.85894" lon="6.0283">
        <ele>794.186279</ele>
        <time>2013-05-13T13:37:29Z</time>
      </trkpt>
      <trkpt lat="46.85902" lon="6.02838">
        <ele>793.705566</ele>
        <time>2013-05-13T13:37:45Z</time>
      </trkpt>
      <trkpt lat="46.85895" lon="6.02839">
        <ele>794.186279</ele>
        <time>2013-05-13T13:38:13Z</time>
      </trkpt>
      <trkpt lat="46.85896" lon="6.0284">
        <ele>794.186279</ele>
        <time>2013-05-13T13:39:15Z</time>
      </trkpt>
      <trkpt lat="46.85895" lon="6.02841">
        <ele>795.147461</ele>
        <time>2013-05-13T13:39:42Z</time>
      </trkpt>
      <trkpt lat="46.85909" lon="6.02856">
        <ele>794.186279</ele>
        <time>2013-05-13T13:40:00Z</time>
      </trkpt>
      <trkpt lat="46.85916" lon="6.02859">
        <ele>794.186279</ele>
        <time>2013-05-13T13:40:13Z</time>
      </trkpt>
      <trkpt lat="46.85916" lon="6.02864">
        <ele>794.186279</ele>
        <time>2013-05-13T13:40:25Z</time>
      </trkpt>
      <trkpt lat="46.85923" lon="6.02877">
        <ele>794.666748</ele>
        <time>2013-05-13T13:40:40Z</time>
      </trkpt>
      <trkpt lat="46.85926" lon="6.0288">
        <ele>795.628174</ele>
        <time>2013-05-13T13:40:45Z</time>
      </trkpt>
      <trkpt lat="46.85938" lon="6.02892">
        <ele>797.551025</ele>
        <time>2013-05-13T13:40:56Z</time>
      </trkpt>
      <trkpt lat="46.8594" lon="6.02895">
        <ele>797.551025</ele>
        <time>2013-05-13T13:41:00Z</time>
      </trkpt>
      <trkpt lat="46.85945" lon="6.02906">
        <ele>797.551025</ele>
        <time>2013-05-13T13:41:09Z</time>
      </trkpt>
      <trkpt lat="46.85949" lon="6.0291">
        <ele>798.512207</ele>
        <time>2013-05-13T13:41:13Z</time>
      </trkpt>
      <trkpt lat="46.8596" lon="6.02921">
        <ele>799.954346</ele>
        <time>2013-05-13T13:41:30Z</time>
      </trkpt>
      <trkpt lat="46.8597" lon="6.02931">
        <ele>801.876953</ele>
        <time>2013-05-13T13:41:44Z</time>
      </trkpt>
      <trkpt lat="46.85979" lon="6.02934">
        <ele>802.838135</ele>
        <time>2013-05-13T13:42:02Z</time>
      </trkpt>
      <trkpt lat="46.85997" lon="6.02925">
        <ele>805.241455</ele>
        <time>2013-05-13T13:42:24Z</time>
      </trkpt>
      <trkpt lat="46.86004" lon="6.0292">
        <ele>806.202637</ele>
        <time>2013-05-13T13:42:43Z</time>
      </trkpt>
      <trkpt lat="46.86019" lon="6.02921">
        <ele>804.760742</ele>
        <time>2013-05-13T13:42:59Z</time>
      </trkpt>
      <trkpt lat="46.8604" lon="6.02935">
        <ele>802.838135</ele>
        <time>2013-05-13T13:43:24Z</time>
      </trkpt>
      <trkpt lat="46.86061" lon="6.02951">
        <ele>801.39624</ele>
        <time>2013-05-13T13:43:47Z</time>
      </trkpt>
      <trkpt lat="46.86081" lon="6.02965">
        <ele>799.954346</ele>
        <time>2013-05-13T13:44:05Z</time>
      </trkpt>
      <trkpt lat="46.86104" lon="6.02979">
        <ele>799.473633</ele>
        <time>2013-05-13T13:44:28Z</time>
      </trkpt>
      <trkpt lat="46.86112" lon="6.02983">
        <ele>800.435059</ele>
        <time>2013-05-13T13:44:36Z</time>
      </trkpt>
      <trkpt lat="46.86132" lon="6.0301">
        <ele>801.39624</ele>
        <time>2013-05-13T13:44:58Z</time>
      </trkpt>
      <trkpt lat="46.86145" lon="6.03022">
        <ele>802.357422</ele>
        <time>2013-05-13T13:45:19Z</time>
      </trkpt>
      <trkpt lat="46.86158" lon="6.03044">
        <ele>802.838135</ele>
        <time>2013-05-13T13:45:36Z</time>
      </trkpt>
      <trkpt lat="46.86176" lon="6.03059">
        <ele>804.280273</ele>
        <time>2013-05-13T13:45:56Z</time>
      </trkpt>
      <trkpt lat="46.86206" lon="6.03078">
        <ele>806.202637</ele>
        <time>2013-05-13T13:46:24Z</time>
      </trkpt>
      <trkpt lat="46.86219" lon="6.03099">
        <ele>808.125488</ele>
        <time>2013-05-13T13:46:47Z</time>
      </trkpt>
      <trkpt lat="46.86233" lon="6.0311">
        <ele>810.528564</ele>
        <time>2013-05-13T13:47:07Z</time>
      </trkpt>
      <trkpt lat="46.86247" lon="6.03126">
        <ele>812.451416</ele>
        <time>2013-05-13T13:47:25Z</time>
      </trkpt>
      <trkpt lat="46.8625" lon="6.03135">
        <ele>812.932129</ele>
        <time>2013-05-13T13:47:40Z</time>
      </trkpt>
      <trkpt lat="46.86273" lon="6.0315">
        <ele>814.374023</ele>
        <time>2013-05-13T13:48:01Z</time>
      </trkpt>
      <trkpt lat="46.86292" lon="6.03156">
        <ele>815.335449</ele>
        <time>2013-05-13T13:48:23Z</time>
      </trkpt>
      <trkpt lat="46.86305" lon="6.03164">
        <ele>815.335449</ele>
        <time>2013-05-13T13:48:42Z</time>
      </trkpt>
      <trkpt lat="46.86319" lon="6.03179">
        <ele>815.335449</ele>
        <time>2013-05-13T13:49:01Z</time>
      </trkpt>
      <trkpt lat="46.8633" lon="6.03193">
        <ele>815.816162</ele>
        <time>2013-05-13T13:49:15Z</time>
      </trkpt>
      <trkpt lat="46.8635" lon="6.03214">
        <ele>815.335449</ele>
        <time>2013-05-13T13:49:36Z</time>
      </trkpt>
      <trkpt lat="46.86381" lon="6.03235">
        <ele>815.816162</ele>
        <time>2013-05-13T13:50:01Z</time>
      </trkpt>
      <trkpt lat="46.86392" lon="6.03256">
        <ele>815.816162</ele>
        <time>2013-05-13T13:50:19Z</time>
      </trkpt>
      <trkpt lat="46.86405" lon="6.03274">
        <ele>817.258057</ele>
        <time>2013-05-13T13:50:37Z</time>
      </trkpt>
      <trkpt lat="46.86416" lon="6.0329">
        <ele>819.180664</ele>
        <time>2013-05-13T13:50:56Z</time>
      </trkpt>
      <trkpt lat="46.86434" lon="6.03325">
        <ele>821.103271</ele>
        <time>2013-05-13T13:51:21Z</time>
      </trkpt>
      <trkpt lat="46.86453" lon="6.0334">
        <ele>823.506592</ele>
        <time>2013-05-13T13:51:44Z</time>
      </trkpt>
      <trkpt lat="46.86454" lon="6.03349">
        <ele>823.987061</ele>
        <time>2013-05-13T13:52:05Z</time>
      </trkpt>
      <trkpt lat="46.86455" lon="6.03349">
        <ele>823.987061</ele>
        <time>2013-05-13T13:53:09Z</time>
      </trkpt>
      <trkpt lat="46.86455" lon="6.03346">
        <ele>827.351807</ele>
        <time>2013-05-13T13:56:53Z</time>
      </trkpt>
      <trkpt lat="46.86469" lon="6.03315">
        <ele>829.755127</ele>
        <time>2013-05-13T13:57:26Z</time>
      </trkpt>
      <trkpt lat="46.86469" lon="6.03313">
        <ele>830.23584</ele>
        <time>2013-05-13T13:57:28Z</time>
      </trkpt>
      <trkpt lat="46.86468" lon="6.03293">
        <ele>831.197266</ele>
        <time>2013-05-13T13:57:41Z</time>
      </trkpt>
      <trkpt lat="46.86467" lon="6.03282">
        <ele>832.158447</ele>
        <time>2013-05-13T13:57:50Z</time>
      </trkpt>
      <trkpt lat="46.86468" lon="6.03277">
        <ele>832.158447</ele>
        <time>2013-05-13T13:57:53Z</time>
      </trkpt>
      <trkpt lat="46.86472" lon="6.03251">
        <ele>834.081055</ele>
        <time>2013-05-13T13:58:10Z</time>
      </trkpt>
      <trkpt lat="46.86479" lon="6.03218">
        <ele>836.003662</ele>
        <time>2013-05-13T13:58:36Z</time>
      </trkpt>
      <trkpt lat="46.86476" lon="6.0319">
        <ele>836.484375</ele>
        <time>2013-05-13T13:58:52Z</time>
      </trkpt>
      <trkpt lat="46.86471" lon="6.03153">
        <ele>837.445557</ele>
        <time>2013-05-13T13:59:15Z</time>
      </trkpt>
      <trkpt lat="46.86473" lon="6.03116">
        <ele>839.368164</ele>
        <time>2013-05-13T13:59:40Z</time>
      </trkpt>
      <trkpt lat="46.86479" lon="6.03083">
        <ele>840.810059</ele>
        <time>2013-05-13T14:00:02Z</time>
      </trkpt>
      <trkpt lat="46.86487" lon="6.03064">
        <ele>841.771484</ele>
        <time>2013-05-13T14:00:17Z</time>
      </trkpt>
      <trkpt lat="46.8649" lon="6.03059">
        <ele>842.252197</ele>
        <time>2013-05-13T14:00:20Z</time>
      </trkpt>
      <trkpt lat="46.86497" lon="6.03033">
        <ele>843.694092</ele>
        <time>2013-05-13T14:00:38Z</time>
      </trkpt>
      <trkpt lat="46.86497" lon="6.0303">
        <ele>843.694092</ele>
        <time>2013-05-13T14:00:40Z</time>
      </trkpt>
      <trkpt lat="46.86498" lon="6.03026">
        <ele>844.175049</ele>
        <time>2013-05-13T14:00:43Z</time>
      </trkpt>
      <trkpt lat="46.86513" lon="6.03014">
        <ele>844.655518</ele>
        <time>2013-05-13T14:00:58Z</time>
      </trkpt>
      <trkpt lat="46.86543" lon="6.0298">
        <ele>845.13623</ele>
        <time>2013-05-13T14:01:21Z</time>
      </trkpt>
      <trkpt lat="46.86561" lon="6.02969">
        <ele>846.578369</ele>
        <time>2013-05-13T14:01:38Z</time>
      </trkpt>
      <trkpt lat="46.8659" lon="6.02961">
        <ele>847.058838</ele>
        <time>2013-05-13T14:02:02Z</time>
      </trkpt>
      <trkpt lat="46.86615" lon="6.02953">
        <ele>848.020264</ele>
        <time>2013-05-13T14:02:24Z</time>
      </trkpt>
      <trkpt lat="46.86631" lon="6.02948">
        <ele>848.981445</ele>
        <time>2013-05-13T14:02:41Z</time>
      </trkpt>
      <trkpt lat="46.86655" lon="6.02939">
        <ele>850.423584</ele>
        <time>2013-05-13T14:03:05Z</time>
      </trkpt>
      <trkpt lat="46.86688" lon="6.02929">
        <ele>852.345947</ele>
        <time>2013-05-13T14:03:30Z</time>
      </trkpt>
      <trkpt lat="46.86715" lon="6.02915">
        <ele>855.22998</ele>
        <time>2013-05-13T14:03:56Z</time>
      </trkpt>
      <trkpt lat="46.86735" lon="6.02909">
        <ele>857.152588</ele>
        <time>2013-05-13T14:04:16Z</time>
      </trkpt>
      <trkpt lat="46.86732" lon="6.02917">
        <ele>857.633301</ele>
        <time>2013-05-13T14:04:30Z</time>
      </trkpt>
      <trkpt lat="46.86712" lon="6.02914">
        <ele>857.152588</ele>
        <time>2013-05-13T14:04:51Z</time>
      </trkpt>
      <trkpt lat="46.86704" lon="6.02906">
        <ele>857.152588</ele>
        <time>2013-05-13T14:04:59Z</time>
      </trkpt>
      <trkpt lat="46.8668" lon="6.02872">
        <ele>856.671875</ele>
        <time>2013-05-13T14:05:24Z</time>
      </trkpt>
      <trkpt lat="46.86661" lon="6.02851">
        <ele>856.191162</ele>
        <time>2013-05-13T14:05:40Z</time>
      </trkpt>
      <trkpt lat="46.86647" lon="6.02833">
        <ele>856.191162</ele>
        <time>2013-05-13T14:05:59Z</time>
      </trkpt>
      <trkpt lat="46.86632" lon="6.02818">
        <ele>855.22998</ele>
        <time>2013-05-13T14:06:17Z</time>
      </trkpt>
      <trkpt lat="46.86619" lon="6.02787">
        <ele>855.22998</ele>
        <time>2013-05-13T14:06:35Z</time>
      </trkpt>
      <trkpt lat="46.86584" lon="6.02763">
        <ele>854.749268</ele>
        <time>2013-05-13T14:06:59Z</time>
      </trkpt>
      <trkpt lat="46.8657" lon="6.02755">
        <ele>854.749268</ele>
        <time>2013-05-13T14:07:21Z</time>
      </trkpt>
      <trkpt lat="46.86544" lon="6.02748">
        <ele>854.749268</ele>
        <time>2013-05-13T14:07:39Z</time>
      </trkpt>
      <trkpt lat="46.86529" lon="6.02731">
        <ele>855.22998</ele>
        <time>2013-05-13T14:07:47Z</time>
      </trkpt>
      <trkpt lat="46.86516" lon="6.02728">
        <ele>856.671875</ele>
        <time>2013-05-13T14:07:59Z</time>
      </trkpt>
      <trkpt lat="46.86505" lon="6.02715">
        <ele>857.152588</ele>
        <time>2013-05-13T14:08:11Z</time>
      </trkpt>
      <trkpt lat="46.86503" lon="6.02712">
        <ele>856.671875</ele>
        <time>2013-05-13T14:08:13Z</time>
      </trkpt>
      <trkpt lat="46.865" lon="6.02711">
        <ele>857.152588</ele>
        <time>2013-05-13T14:08:18Z</time>
      </trkpt>
      <trkpt lat="46.86494" lon="6.02704">
        <ele>856.671875</ele>
        <time>2013-05-13T14:08:24Z</time>
      </trkpt>
      <trkpt lat="46.8649" lon="6.02697">
        <ele>857.152588</ele>
        <time>2013-05-13T14:08:28Z</time>
      </trkpt>
      <trkpt lat="46.86479" lon="6.0268">
        <ele>856.191162</ele>
        <time>2013-05-13T14:08:43Z</time>
      </trkpt>
      <trkpt lat="46.86468" lon="6.02672">
        <ele>855.710693</ele>
        <time>2013-05-13T14:08:54Z</time>
      </trkpt>
      <trkpt lat="46.86456" lon="6.02657">
        <ele>855.710693</ele>
        <time>2013-05-13T14:09:09Z</time>
      </trkpt>
      <trkpt lat="46.86454" lon="6.02655">
        <ele>855.710693</ele>
        <time>2013-05-13T14:09:12Z</time>
      </trkpt>
      <trkpt lat="46.86439" lon="6.02638">
        <ele>856.191162</ele>
        <time>2013-05-13T14:09:25Z</time>
      </trkpt>
      <trkpt lat="46.86435" lon="6.02635">
        <ele>855.710693</ele>
        <time>2013-05-13T14:09:28Z</time>
      </trkpt>
      <trkpt lat="46.86421" lon="6.02627">
        <ele>856.671875</ele>
        <time>2013-05-13T14:09:41Z</time>
      </trkpt>
      <trkpt lat="46.8642" lon="6.02624">
        <ele>857.152588</ele>
        <time>2013-05-13T14:09:43Z</time>
      </trkpt>
      <trkpt lat="46.86418" lon="6.02618">
        <ele>857.152588</ele>
        <time>2013-05-13T14:09:46Z</time>
      </trkpt>
      <trkpt lat="46.86415" lon="6.02616">
        <ele>857.152588</ele>
        <time>2013-05-13T14:09:49Z</time>
      </trkpt>
      <trkpt lat="46.86405" lon="6.02613">
        <ele>857.633301</ele>
        <time>2013-05-13T14:09:54Z</time>
      </trkpt>
      <trkpt lat="46.86389" lon="6.02615">
        <ele>858.594482</ele>
        <time>2013-05-13T14:10:09Z</time>
      </trkpt>
      <trkpt lat="46.86382" lon="6.02615">
        <ele>858.114014</ele>
        <time>2013-05-13T14:10:15Z</time>
      </trkpt>
      <trkpt lat="46.8638" lon="6.02618">
        <ele>858.594482</ele>
        <time>2013-05-13T14:10:18Z</time>
      </trkpt>
      <trkpt lat="46.8637" lon="6.02623">
        <ele>858.594482</ele>
        <time>2013-05-13T14:10:24Z</time>
      </trkpt>
      <trkpt lat="46.86351" lon="6.02605">
        <ele>859.075195</ele>
        <time>2013-05-13T14:10:37Z</time>
      </trkpt>
      <trkpt lat="46.86331" lon="6.0259">
        <ele>858.594482</ele>
        <time>2013-05-13T14:10:53Z</time>
      </trkpt>
      <trkpt lat="46.8632" lon="6.02584">
        <ele>858.594482</ele>
        <time>2013-05-13T14:11:01Z</time>
      </trkpt>
      <trkpt lat="46.86317" lon="6.02583">
        <ele>858.594482</ele>
        <time>2013-05-13T14:11:03Z</time>
      </trkpt>
      <trkpt lat="46.86312" lon="6.0258">
        <ele>858.114014</ele>
        <time>2013-05-13T14:11:07Z</time>
      </trkpt>
      <trkpt lat="46.86308" lon="6.02577">
        <ele>858.114014</ele>
        <time>2013-05-13T14:11:11Z</time>
      </trkpt>
      <trkpt lat="46.86288" lon="6.0257">
        <ele>857.633301</ele>
        <time>2013-05-13T14:11:28Z</time>
      </trkpt>
      <trkpt lat="46.86271" lon="6.02564">
        <ele>857.633301</ele>
        <time>2013-05-13T14:11:43Z</time>
      </trkpt>
      <trkpt lat="46.86257" lon="6.02563">
        <ele>858.114014</ele>
        <time>2013-05-13T14:11:54Z</time>
      </trkpt>
      <trkpt lat="46.86239" lon="6.02557">
        <ele>858.594482</ele>
        <time>2013-05-13T14:12:09Z</time>
      </trkpt>
      <trkpt lat="46.86235" lon="6.02553">
        <ele>858.594482</ele>
        <time>2013-05-13T14:12:12Z</time>
      </trkpt>
      <trkpt lat="46.86233" lon="6.02551">
        <ele>858.594482</ele>
        <time>2013-05-13T14:12:14Z</time>
      </trkpt>
      <trkpt lat="46.8623" lon="6.02551">
        <ele>858.594482</ele>
        <time>2013-05-13T14:12:17Z</time>
      </trkpt>
      <trkpt lat="46.86228" lon="6.0255">
        <ele>858.594482</ele>
        <time>2013-05-13T14:12:19Z</time>
      </trkpt>
      <trkpt lat="46.86221" lon="6.0255">
        <ele>859.075195</ele>
        <time>2013-05-13T14:12:25Z</time>
      </trkpt>
      <trkpt lat="46.86218" lon="6.02551">
        <ele>859.075195</ele>
        <time>2013-05-13T14:12:27Z</time>
      </trkpt>
      <trkpt lat="46.86205" lon="6.02543">
        <ele>859.555908</ele>
        <time>2013-05-13T14:12:42Z</time>
      </trkpt>
      <trkpt lat="46.86179" lon="6.02518">
        <ele>860.998047</ele>
        <time>2013-05-13T14:13:04Z</time>
      </trkpt>
      <trkpt lat="46.86156" lon="6.02494">
        <ele>862.439941</ele>
        <time>2013-05-13T14:13:25Z</time>
      </trkpt>
      <trkpt lat="46.86149" lon="6.02476">
        <ele>863.401367</ele>
        <time>2013-05-13T14:13:37Z</time>
      </trkpt>
      <trkpt lat="46.86149" lon="6.0247">
        <ele>863.401367</ele>
        <time>2013-05-13T14:13:40Z</time>
      </trkpt>
      <trkpt lat="46.86144" lon="6.02451">
        <ele>864.362549</ele>
        <time>2013-05-13T14:13:54Z</time>
      </trkpt>
      <trkpt lat="46.86138" lon="6.0242">
        <ele>865.323975</ele>
        <time>2013-05-13T14:14:10Z</time>
      </trkpt>
      <trkpt lat="46.86135" lon="6.02395">
        <ele>865.323975</ele>
        <time>2013-05-13T14:14:25Z</time>
      </trkpt>
      <trkpt lat="46.86123" lon="6.02359">
        <ele>864.362549</ele>
        <time>2013-05-13T14:14:43Z</time>
      </trkpt>
      <trkpt lat="46.86117" lon="6.02334">
        <ele>863.401367</ele>
        <time>2013-05-13T14:14:55Z</time>
      </trkpt>
      <trkpt lat="46.86111" lon="6.0232">
        <ele>863.401367</ele>
        <time>2013-05-13T14:15:08Z</time>
      </trkpt>
      <trkpt lat="46.86108" lon="6.02291">
        <ele>863.881836</ele>
        <time>2013-05-13T14:15:25Z</time>
      </trkpt>
      <trkpt lat="46.86099" lon="6.0226">
        <ele>863.881836</ele>
        <time>2013-05-13T14:15:40Z</time>
      </trkpt>
      <trkpt lat="46.86091" lon="6.02248">
        <ele>864.362549</ele>
        <time>2013-05-13T14:15:50Z</time>
      </trkpt>
      <trkpt lat="46.86081" lon="6.02229">
        <ele>864.362549</ele>
        <time>2013-05-13T14:16:04Z</time>
      </trkpt>
      <trkpt lat="46.86075" lon="6.02217">
        <ele>863.881836</ele>
        <time>2013-05-13T14:16:11Z</time>
      </trkpt>
      <trkpt lat="46.86072" lon="6.02215">
        <ele>863.881836</ele>
        <time>2013-05-13T14:16:13Z</time>
      </trkpt>
      <trkpt lat="46.86068" lon="6.02204">
        <ele>863.881836</ele>
        <time>2013-05-13T14:16:20Z</time>
      </trkpt>
      <trkpt lat="46.86057" lon="6.02194">
        <ele>863.881836</ele>
        <time>2013-05-13T14:16:31Z</time>
      </trkpt>
      <trkpt lat="46.86044" lon="6.02174">
        <ele>863.881836</ele>
        <time>2013-05-13T14:16:47Z</time>
      </trkpt>
      <trkpt lat="46.86025" lon="6.02147">
        <ele>864.362549</ele>
        <time>2013-05-13T14:17:07Z</time>
      </trkpt>
      <trkpt lat="46.86015" lon="6.02124">
        <ele>864.843262</ele>
        <time>2013-05-13T14:17:24Z</time>
      </trkpt>
      <trkpt lat="46.86014" lon="6.0212">
        <ele>864.362549</ele>
        <time>2013-05-13T14:17:27Z</time>
      </trkpt>
      <trkpt lat="46.86007" lon="6.02114">
        <ele>864.362549</ele>
        <time>2013-05-13T14:17:34Z</time>
      </trkpt>
      <trkpt lat="46.86005" lon="6.02113">
        <ele>863.881836</ele>
        <time>2013-05-13T14:17:36Z</time>
      </trkpt>
      <trkpt lat="46.85988" lon="6.02092">
        <ele>862.920654</ele>
        <time>2013-05-13T14:17:53Z</time>
      </trkpt>
      <trkpt lat="46.85975" lon="6.0208">
        <ele>861.959473</ele>
        <time>2013-05-13T14:18:02Z</time>
      </trkpt>
      <trkpt lat="46.85968" lon="6.02065">
        <ele>860.517334</ele>
        <time>2013-05-13T14:18:12Z</time>
      </trkpt>
      <trkpt lat="46.85957" lon="6.02046">
        <ele>860.036621</ele>
        <time>2013-05-13T14:18:28Z</time>
      </trkpt>
      <trkpt lat="46.85956" lon="6.02044">
        <ele>860.517334</ele>
        <time>2013-05-13T14:18:29Z</time>
      </trkpt>
      <trkpt lat="46.85952" lon="6.02037">
        <ele>860.036621</ele>
        <time>2013-05-13T14:18:34Z</time>
      </trkpt>
      <trkpt lat="46.8594" lon="6.02018">
        <ele>860.036621</ele>
        <time>2013-05-13T14:18:48Z</time>
      </trkpt>
      <trkpt lat="46.85936" lon="6.02001">
        <ele>860.517334</ele>
        <time>2013-05-13T14:18:56Z</time>
      </trkpt>
      <trkpt lat="46.85934" lon="6.01999">
        <ele>860.517334</ele>
        <time>2013-05-13T14:18:59Z</time>
      </trkpt>
      <trkpt lat="46.8592" lon="6.01986">
        <ele>860.517334</ele>
        <time>2013-05-13T14:19:15Z</time>
      </trkpt>
      <trkpt lat="46.85899" lon="6.01962">
        <ele>861.959473</ele>
        <time>2013-05-13T14:19:34Z</time>
      </trkpt>
      <trkpt lat="46.85897" lon="6.01961">
        <ele>862.439941</ele>
        <time>2013-05-13T14:19:37Z</time>
      </trkpt>
      <trkpt lat="46.85895" lon="6.01959">
        <ele>862.439941</ele>
        <time>2013-05-13T14:19:39Z</time>
      </trkpt>
      <trkpt lat="46.8588" lon="6.01958">
        <ele>862.920654</ele>
        <time>2013-05-13T14:19:54Z</time>
      </trkpt>
      <trkpt lat="46.85866" lon="6.01948">
        <ele>863.401367</ele>
        <time>2013-05-13T14:20:07Z</time>
      </trkpt>
      <trkpt lat="46.85845" lon="6.01934">
        <ele>863.401367</ele>
        <time>2013-05-13T14:20:21Z</time>
      </trkpt>
      <trkpt lat="46.85825" lon="6.01907">
        <ele>862.920654</ele>
        <time>2013-05-13T14:20:39Z</time>
      </trkpt>
      <trkpt lat="46.85805" lon="6.01892">
        <ele>862.439941</ele>
        <time>2013-05-13T14:20:55Z</time>
      </trkpt>
      <trkpt lat="46.85789" lon="6.0188">
        <ele>861.47876</ele>
        <time>2013-05-13T14:21:14Z</time>
      </trkpt>
      <trkpt lat="46.85778" lon="6.01867">
        <ele>862.920654</ele>
        <time>2013-05-13T14:21:26Z</time>
      </trkpt>
      <trkpt lat="46.85767" lon="6.01851">
        <ele>863.881836</ele>
        <time>2013-05-13T14:21:40Z</time>
      </trkpt>
      <trkpt lat="46.85755" lon="6.01838">
        <ele>865.323975</ele>
        <time>2013-05-13T14:21:55Z</time>
      </trkpt>
      <trkpt lat="46.85747" lon="6.01827">
        <ele>865.804688</ele>
        <time>2013-05-13T14:22:06Z</time>
      </trkpt>
      <trkpt lat="46.85746" lon="6.01825">
        <ele>865.804688</ele>
        <time>2013-05-13T14:22:08Z</time>
      </trkpt>
      <trkpt lat="46.85744" lon="6.01824">
        <ele>865.804688</ele>
        <time>2013-05-13T14:22:10Z</time>
      </trkpt>
      <trkpt lat="46.85739" lon="6.01819">
        <ele>866.765869</ele>
        <time>2013-05-13T14:22:17Z</time>
      </trkpt>
      <trkpt lat="46.85726" lon="6.01803">
        <ele>866.765869</ele>
        <time>2013-05-13T14:22:31Z</time>
      </trkpt>
      <trkpt lat="46.85722" lon="6.01789">
        <ele>867.727051</ele>
        <time>2013-05-13T14:22:39Z</time>
      </trkpt>
      <trkpt lat="46.85712" lon="6.01768">
        <ele>869.169189</ele>
        <time>2013-05-13T14:22:54Z</time>
      </trkpt>
      <trkpt lat="46.85701" lon="6.01747">
        <ele>871.091797</ele>
        <time>2013-05-13T14:23:09Z</time>
      </trkpt>
      <trkpt lat="46.85696" lon="6.01738">
        <ele>871.572266</ele>
        <time>2013-05-13T14:23:17Z</time>
      </trkpt>
      <trkpt lat="46.8569" lon="6.0173">
        <ele>872.052979</ele>
        <time>2013-05-13T14:23:23Z</time>
      </trkpt>
      <trkpt lat="46.85688" lon="6.01725">
        <ele>872.533691</ele>
        <time>2013-05-13T14:23:26Z</time>
      </trkpt>
      <trkpt lat="46.85682" lon="6.01713">
        <ele>873.014404</ele>
        <time>2013-05-13T14:23:33Z</time>
      </trkpt>
      <trkpt lat="46.85679" lon="6.0171">
        <ele>873.495117</ele>
        <time>2013-05-13T14:23:35Z</time>
      </trkpt>
      <trkpt lat="46.85674" lon="6.01703">
        <ele>873.495117</ele>
        <time>2013-05-13T14:23:41Z</time>
      </trkpt>
      <trkpt lat="46.85662" lon="6.01689">
        <ele>873.495117</ele>
        <time>2013-05-13T14:23:55Z</time>
      </trkpt>
      <trkpt lat="46.8566" lon="6.01688">
        <ele>873.495117</ele>
        <time>2013-05-13T14:23:56Z</time>
      </trkpt>
      <trkpt lat="46.85646" lon="6.01674">
        <ele>872.052979</ele>
        <time>2013-05-13T14:24:11Z</time>
      </trkpt>
      <trkpt lat="46.85643" lon="6.01672">
        <ele>872.052979</ele>
        <time>2013-05-13T14:24:14Z</time>
      </trkpt>
      <trkpt lat="46.85619" lon="6.01648">
        <ele>870.130371</ele>
        <time>2013-05-13T14:24:36Z</time>
      </trkpt>
      <trkpt lat="46.85608" lon="6.0163">
        <ele>868.688477</ele>
        <time>2013-05-13T14:24:49Z</time>
      </trkpt>
      <trkpt lat="46.85598" lon="6.01613">
        <ele>868.688477</ele>
        <time>2013-05-13T14:24:59Z</time>
      </trkpt>
      <trkpt lat="46.85594" lon="6.01605">
        <ele>868.207764</ele>
        <time>2013-05-13T14:25:04Z</time>
      </trkpt>
      <trkpt lat="46.85592" lon="6.016">
        <ele>868.688477</ele>
        <time>2013-05-13T14:25:07Z</time>
      </trkpt>
      <trkpt lat="46.85586" lon="6.01574">
        <ele>869.169189</ele>
        <time>2013-05-13T14:25:23Z</time>
      </trkpt>
      <trkpt lat="46.85574" lon="6.01543">
        <ele>871.091797</ele>
        <time>2013-05-13T14:25:42Z</time>
      </trkpt>
      <trkpt lat="46.85568" lon="6.01513">
        <ele>871.572266</ele>
        <time>2013-05-13T14:26:02Z</time>
      </trkpt>
      <trkpt lat="46.85553" lon="6.0148">
        <ele>872.533691</ele>
        <time>2013-05-13T14:26:24Z</time>
      </trkpt>
      <trkpt lat="46.85545" lon="6.01473">
        <ele>873.014404</ele>
        <time>2013-05-13T14:26:31Z</time>
      </trkpt>
      <trkpt lat="46.85541" lon="6.01467">
        <ele>873.495117</ele>
        <time>2013-05-13T14:26:36Z</time>
      </trkpt>
      <trkpt lat="46.85531" lon="6.01455">
        <ele>873.495117</ele>
        <time>2013-05-13T14:26:50Z</time>
      </trkpt>
      <trkpt lat="46.85512" lon="6.01445">
        <ele>873.014404</ele>
        <time>2013-05-13T14:27:06Z</time>
      </trkpt>
      <trkpt lat="46.85495" lon="6.01432">
        <ele>872.052979</ele>
        <time>2013-05-13T14:27:20Z</time>
      </trkpt>
      <trkpt lat="46.85481" lon="6.0142">
        <ele>870.611084</ele>
        <time>2013-05-13T14:27:32Z</time>
      </trkpt>
      <trkpt lat="46.8547" lon="6.0141">
        <ele>870.611084</ele>
        <time>2013-05-13T14:27:41Z</time>
      </trkpt>
      <trkpt lat="46.85458" lon="6.01399">
        <ele>870.130371</ele>
        <time>2013-05-13T14:27:51Z</time>
      </trkpt>
      <trkpt lat="46.85454" lon="6.01395">
        <ele>870.130371</ele>
        <time>2013-05-13T14:27:54Z</time>
      </trkpt>
      <trkpt lat="46.85447" lon="6.0139">
        <ele>870.130371</ele>
        <time>2013-05-13T14:28:00Z</time>
      </trkpt>
      <trkpt lat="46.85445" lon="6.01389">
        <ele>870.130371</ele>
        <time>2013-05-13T14:28:02Z</time>
      </trkpt>
      <trkpt lat="46.85427" lon="6.01381">
        <ele>868.688477</ele>
        <time>2013-05-13T14:28:18Z</time>
      </trkpt>
      <trkpt lat="46.85426" lon="6.0138">
        <ele>868.688477</ele>
        <time>2013-05-13T14:28:19Z</time>
      </trkpt>
      <trkpt lat="46.85408" lon="6.0136">
        <ele>868.688477</ele>
        <time>2013-05-13T14:28:36Z</time>
      </trkpt>
      <trkpt lat="46.85405" lon="6.01358">
        <ele>868.688477</ele>
        <time>2013-05-13T14:28:41Z</time>
      </trkpt>
      <trkpt lat="46.85399" lon="6.0135">
        <ele>868.688477</ele>
        <time>2013-05-13T14:28:48Z</time>
      </trkpt>
      <trkpt lat="46.85396" lon="6.01346">
        <ele>868.688477</ele>
        <time>2013-05-13T14:28:51Z</time>
      </trkpt>
      <trkpt lat="46.85381" lon="6.01323">
        <ele>869.169189</ele>
        <time>2013-05-13T14:29:06Z</time>
      </trkpt>
      <trkpt lat="46.85379" lon="6.01321">
        <ele>868.688477</ele>
        <time>2013-05-13T14:29:07Z</time>
      </trkpt>
      <trkpt lat="46.8537" lon="6.013">
        <ele>867.727051</ele>
        <time>2013-05-13T14:29:21Z</time>
      </trkpt>
      <trkpt lat="46.85359" lon="6.01287">
        <ele>867.246582</ele>
        <time>2013-05-13T14:29:31Z</time>
      </trkpt>
      <trkpt lat="46.85345" lon="6.0127">
        <ele>865.323975</ele>
        <time>2013-05-13T14:29:47Z</time>
      </trkpt>
      <trkpt lat="46.85323" lon="6.01259">
        <ele>864.843262</ele>
        <time>2013-05-13T14:30:03Z</time>
      </trkpt>
      <trkpt lat="46.85304" lon="6.01252">
        <ele>863.881836</ele>
        <time>2013-05-13T14:30:16Z</time>
      </trkpt>
      <trkpt lat="46.85299" lon="6.01248">
        <ele>863.401367</ele>
        <time>2013-05-13T14:30:21Z</time>
      </trkpt>
      <trkpt lat="46.85285" lon="6.0123">
        <ele>860.998047</ele>
        <time>2013-05-13T14:30:35Z</time>
      </trkpt>
      <trkpt lat="46.85267" lon="6.01227">
        <ele>858.114014</ele>
        <time>2013-05-13T14:30:50Z</time>
      </trkpt>
      <trkpt lat="46.85264" lon="6.01223">
        <ele>857.152588</ele>
        <time>2013-05-13T14:30:54Z</time>
      </trkpt>
      <trkpt lat="46.85249" lon="6.01211">
        <ele>853.307373</ele>
        <time>2013-05-13T14:31:09Z</time>
      </trkpt>
      <trkpt lat="46.85238" lon="6.0121">
        <ele>851.384766</ele>
        <time>2013-05-13T14:31:17Z</time>
      </trkpt>
      <trkpt lat="46.85225" lon="6.01199">
        <ele>848.500732</ele>
        <time>2013-05-13T14:31:29Z</time>
      </trkpt>
      <trkpt lat="46.85211" lon="6.0118">
        <ele>845.13623</ele>
        <time>2013-05-13T14:31:45Z</time>
      </trkpt>
      <trkpt lat="46.85189" lon="6.01167">
        <ele>842.252197</ele>
        <time>2013-05-13T14:32:01Z</time>
      </trkpt>
      <trkpt lat="46.85173" lon="6.01157">
        <ele>839.368164</ele>
        <time>2013-05-13T14:32:16Z</time>
      </trkpt>
      <trkpt lat="46.85157" lon="6.01149">
        <ele>836.484375</ele>
        <time>2013-05-13T14:32:28Z</time>
      </trkpt>
      <trkpt lat="46.85142" lon="6.01135">
        <ele>833.119629</ele>
        <time>2013-05-13T14:32:44Z</time>
      </trkpt>
      <trkpt lat="46.85133" lon="6.01122">
        <ele>830.23584</ele>
        <time>2013-05-13T14:32:58Z</time>
      </trkpt>
      <trkpt lat="46.85121" lon="6.01115">
        <ele>827.832275</ele>
        <time>2013-05-13T14:33:10Z</time>
      </trkpt>
      <trkpt lat="46.85117" lon="6.01111">
        <ele>827.351807</ele>
        <time>2013-05-13T14:33:13Z</time>
      </trkpt>
      <trkpt lat="46.85107" lon="6.011">
        <ele>825.428955</ele>
        <time>2013-05-13T14:33:24Z</time>
      </trkpt>
      <trkpt lat="46.85106" lon="6.01093">
        <ele>825.428955</ele>
        <time>2013-05-13T14:33:28Z</time>
      </trkpt>
      <trkpt lat="46.85103" lon="6.01085">
        <ele>824.467773</ele>
        <time>2013-05-13T14:33:33Z</time>
      </trkpt>
      <trkpt lat="46.85098" lon="6.0107">
        <ele>823.506592</ele>
        <time>2013-05-13T14:33:41Z</time>
      </trkpt>
      <trkpt lat="46.85095" lon="6.01043">
        <ele>821.103271</ele>
        <time>2013-05-13T14:33:58Z</time>
      </trkpt>
      <trkpt lat="46.85093" lon="6.01019">
        <ele>819.180664</ele>
        <time>2013-05-13T14:34:16Z</time>
      </trkpt>
      <trkpt lat="46.85104" lon="6.00988">
        <ele>817.258057</ele>
        <time>2013-05-13T14:34:36Z</time>
      </trkpt>
      <trkpt lat="46.85108" lon="6.00977">
        <ele>816.777344</ele>
        <time>2013-05-13T14:34:42Z</time>
      </trkpt>
      <trkpt lat="46.85103" lon="6.00935">
        <ele>813.412842</ele>
        <time>2013-05-13T14:35:01Z</time>
      </trkpt>
      <trkpt lat="46.85102" lon="6.00929">
        <ele>811.970703</ele>
        <time>2013-05-13T14:35:05Z</time>
      </trkpt>
      <trkpt lat="46.85096" lon="6.00904">
        <ele>809.08667</ele>
        <time>2013-05-13T14:35:19Z</time>
      </trkpt>
      <trkpt lat="46.8509" lon="6.0088">
        <ele>805.722168</ele>
        <time>2013-05-13T14:35:35Z</time>
      </trkpt>
      <trkpt lat="46.8509" lon="6.00879">
        <ele>805.722168</ele>
        <time>2013-05-13T14:35:36Z</time>
      </trkpt>
      <trkpt lat="46.85088" lon="6.00877">
        <ele>805.722168</ele>
        <time>2013-05-13T14:35:37Z</time>
      </trkpt>
      <trkpt lat="46.85077" lon="6.00855">
        <ele>802.838135</ele>
        <time>2013-05-13T14:35:49Z</time>
      </trkpt>
      <trkpt lat="46.85062" lon="6.00833">
        <ele>799.954346</ele>
        <time>2013-05-13T14:36:03Z</time>
      </trkpt>
      <trkpt lat="46.85049" lon="6.00813">
        <ele>798.99292</ele>
        <time>2013-05-13T14:36:18Z</time>
      </trkpt>
      <trkpt lat="46.85044" lon="6.00808">
        <ele>796.589844</ele>
        <time>2013-05-13T14:36:25Z</time>
      </trkpt>
      <trkpt lat="46.85034" lon="6.00792">
        <ele>794.666748</ele>
        <time>2013-05-13T14:36:37Z</time>
      </trkpt>
      <trkpt lat="46.85028" lon="6.00777">
        <ele>792.263672</ele>
        <time>2013-05-13T14:36:50Z</time>
      </trkpt>
      <trkpt lat="46.85034" lon="6.00764">
        <ele>791.302246</ele>
        <time>2013-05-13T14:37:05Z</time>
      </trkpt>
      <trkpt lat="46.85035" lon="6.0076">
        <ele>789.379639</ele>
        <time>2013-05-13T14:37:09Z</time>
      </trkpt>
      <trkpt lat="46.85042" lon="6.00755">
        <ele>789.860352</ele>
        <time>2013-05-13T14:37:14Z</time>
      </trkpt>
      <trkpt lat="46.85051" lon="6.00747">
        <ele>788.89917</ele>
        <time>2013-05-13T14:37:26Z</time>
      </trkpt>
      <trkpt lat="46.85072" lon="6.00733">
        <ele>788.418457</ele>
        <time>2013-05-13T14:37:49Z</time>
      </trkpt>
      <trkpt lat="46.85091" lon="6.00723">
        <ele>786.49585</ele>
        <time>2013-05-13T14:38:11Z</time>
      </trkpt>
      <trkpt lat="46.85113" lon="6.00707">
        <ele>786.015137</ele>
        <time>2013-05-13T14:38:29Z</time>
      </trkpt>
      <trkpt lat="46.85135" lon="6.00702">
        <ele>784.573242</ele>
        <time>2013-05-13T14:38:51Z</time>
      </trkpt>
      <trkpt lat="46.85146" lon="6.00702">
        <ele>784.092529</ele>
        <time>2013-05-13T14:39:01Z</time>
      </trkpt>
      <trkpt lat="46.8515" lon="6.00706">
        <ele>785.053955</ele>
        <time>2013-05-13T14:39:15Z</time>
      </trkpt>
      <trkpt lat="46.85155" lon="6.00711">
        <ele>787.457031</ele>
        <time>2013-05-13T14:39:38Z</time>
      </trkpt>
      <trkpt lat="46.85167" lon="6.00728">
        <ele>788.89917</ele>
        <time>2013-05-13T14:39:53Z</time>
      </trkpt>
      <trkpt lat="46.8517" lon="6.00732">
        <ele>788.418457</ele>
        <time>2013-05-13T14:40:11Z</time>
      </trkpt>
      <trkpt lat="46.85177" lon="6.00744">
        <ele>788.418457</ele>
        <time>2013-05-13T14:41:18Z</time>
      </trkpt>
      <trkpt lat="46.85179" lon="6.00749">
        <ele>788.418457</ele>
        <time>2013-05-13T14:41:34Z</time>
      </trkpt>
      <trkpt lat="46.85177" lon="6.00752">
        <ele>787.937744</ele>
        <time>2013-05-13T14:42:17Z</time>
      </trkpt>
      <trkpt lat="46.85191" lon="6.00757">
        <ele>786.976318</ele>
        <time>2013-05-13T14:43:08Z</time>
      </trkpt>
      <trkpt lat="46.85202" lon="6.00781">
        <ele>789.379639</ele>
        <time>2013-05-13T14:43:41Z</time>
      </trkpt>
      <trkpt lat="46.85213" lon="6.00798">
        <ele>790.821533</ele>
        <time>2013-05-13T14:43:59Z</time>
      </trkpt>
      <trkpt lat="46.85221" lon="6.00812">
        <ele>792.263672</ele>
        <time>2013-05-13T14:44:12Z</time>
      </trkpt>
      <trkpt lat="46.85228" lon="6.00826">
        <ele>793.224854</ele>
        <time>2013-05-13T14:44:27Z</time>
      </trkpt>
      <trkpt lat="46.85233" lon="6.0084">
        <ele>795.147461</ele>
        <time>2013-05-13T14:44:47Z</time>
      </trkpt>
      <trkpt lat="46.85239" lon="6.00844">
        <ele>795.628174</ele>
        <time>2013-05-13T14:45:04Z</time>
      </trkpt>
      <trkpt lat="46.85241" lon="6.00857">
        <ele>797.070313</ele>
        <time>2013-05-13T14:45:21Z</time>
      </trkpt>
      <trkpt lat="46.85247" lon="6.00869">
        <ele>798.031738</ele>
        <time>2013-05-13T14:45:37Z</time>
      </trkpt>
      <trkpt lat="46.85251" lon="6.00881">
        <ele>799.473633</ele>
        <time>2013-05-13T14:45:54Z</time>
      </trkpt>
      <trkpt lat="46.85258" lon="6.00895">
        <ele>801.39624</ele>
        <time>2013-05-13T14:46:14Z</time>
      </trkpt>
      <trkpt lat="46.85257" lon="6.00898">
        <ele>802.838135</ele>
        <time>2013-05-13T14:46:23Z</time>
      </trkpt>
      <trkpt lat="46.85264" lon="6.00904">
        <ele>802.838135</ele>
        <time>2013-05-13T14:46:36Z</time>
      </trkpt>
      <trkpt lat="46.85268" lon="6.00913">
        <ele>805.241455</ele>
        <time>2013-05-13T14:46:53Z</time>
      </trkpt>
      <trkpt lat="46.85281" lon="6.00927">
        <ele>806.68335</ele>
        <time>2013-05-13T14:47:10Z</time>
      </trkpt>
      <trkpt lat="46.85289" lon="6.00941">
        <ele>808.605957</ele>
        <time>2013-05-13T14:47:26Z</time>
      </trkpt>
      <trkpt lat="46.85303" lon="6.00953">
        <ele>809.567383</ele>
        <time>2013-05-13T14:47:44Z</time>
      </trkpt>
      <trkpt lat="46.85307" lon="6.00956">
        <ele>811.48999</ele>
        <time>2013-05-13T14:47:57Z</time>
      </trkpt>
      <trkpt lat="46.85321" lon="6.00968">
        <ele>812.451416</ele>
        <time>2013-05-13T14:48:19Z</time>
      </trkpt>
      <trkpt lat="46.85331" lon="6.00982">
        <ele>815.335449</ele>
        <time>2013-05-13T14:48:44Z</time>
      </trkpt>
      <trkpt lat="46.85341" lon="6.00999">
        <ele>817.738525</ele>
        <time>2013-05-13T14:49:07Z</time>
      </trkpt>
      <trkpt lat="46.85354" lon="6.01008">
        <ele>818.219238</ele>
        <time>2013-05-13T14:49:31Z</time>
      </trkpt>
      <trkpt lat="46.85361" lon="6.01016">
        <ele>818.699951</ele>
        <time>2013-05-13T14:49:55Z</time>
      </trkpt>
      <trkpt lat="46.85365" lon="6.01026">
        <ele>821.103271</ele>
        <time>2013-05-13T14:50:21Z</time>
      </trkpt>
      <trkpt lat="46.85381" lon="6.01039">
        <ele>824.467773</ele>
        <time>2013-05-13T14:50:48Z</time>
      </trkpt>
      <trkpt lat="46.85391" lon="6.01061">
        <ele>827.351807</ele>
        <time>2013-05-13T14:51:12Z</time>
      </trkpt>
      <trkpt lat="46.85391" lon="6.01076">
        <ele>830.23584</ele>
        <time>2013-05-13T14:51:34Z</time>
      </trkpt>
      <trkpt lat="46.85391" lon="6.01077">
        <ele>830.716553</ele>
        <time>2013-05-13T14:51:36Z</time>
      </trkpt>
      <trkpt lat="46.854" lon="6.01087">
        <ele>832.63916</ele>
        <time>2013-05-13T14:51:55Z</time>
      </trkpt>
      <trkpt lat="46.85405" lon="6.01093">
        <ele>833.600342</ele>
        <time>2013-05-13T14:52:07Z</time>
      </trkpt>
      <trkpt lat="46.85416" lon="6.01101">
        <ele>833.600342</ele>
        <time>2013-05-13T14:52:23Z</time>
      </trkpt>
      <trkpt lat="46.85426" lon="6.011">
        <ele>832.63916</ele>
        <time>2013-05-13T14:52:34Z</time>
      </trkpt>
      <trkpt lat="46.8544" lon="6.01108">
        <ele>833.119629</ele>
        <time>2013-05-13T14:52:48Z</time>
      </trkpt>
      <trkpt lat="46.85457" lon="6.01115">
        <ele>832.158447</ele>
        <time>2013-05-13T14:53:06Z</time>
      </trkpt>
      <trkpt lat="46.85474" lon="6.0112">
        <ele>831.197266</ele>
        <time>2013-05-13T14:53:21Z</time>
      </trkpt>
      <trkpt lat="46.85494" lon="6.01133">
        <ele>830.23584</ele>
        <time>2013-05-13T14:53:38Z</time>
      </trkpt>
      <trkpt lat="46.85511" lon="6.01141">
        <ele>829.274414</ele>
        <time>2013-05-13T14:53:53Z</time>
      </trkpt>
      <trkpt lat="46.85521" lon="6.01152">
        <ele>828.313232</ele>
        <time>2013-05-13T14:54:02Z</time>
      </trkpt>
      <trkpt lat="46.85535" lon="6.01161">
        <ele>827.832275</ele>
        <time>2013-05-13T14:54:12Z</time>
      </trkpt>
      <trkpt lat="46.8554" lon="6.01178">
        <ele>826.390381</ele>
        <time>2013-05-13T14:54:26Z</time>
      </trkpt>
      <trkpt lat="46.85542" lon="6.0118">
        <ele>825.428955</ele>
        <time>2013-05-13T14:54:31Z</time>
      </trkpt>
      <trkpt lat="46.85558" lon="6.01184">
        <ele>823.987061</ele>
        <time>2013-05-13T14:54:43Z</time>
      </trkpt>
      <trkpt lat="46.85568" lon="6.01193">
        <ele>823.025879</ele>
        <time>2013-05-13T14:54:55Z</time>
      </trkpt>
      <trkpt lat="46.85583" lon="6.01203">
        <ele>821.58374</ele>
        <time>2013-05-13T14:55:10Z</time>
      </trkpt>
      <trkpt lat="46.85596" lon="6.01207">
        <ele>820.141846</ele>
        <time>2013-05-13T14:55:26Z</time>
      </trkpt>
      <trkpt lat="46.85608" lon="6.01205">
        <ele>817.258057</ele>
        <time>2013-05-13T14:56:03Z</time>
      </trkpt>
      <trkpt lat="46.85615" lon="6.01201">
        <ele>815.816162</ele>
        <time>2013-05-13T14:56:12Z</time>
      </trkpt>
      <trkpt lat="46.85617" lon="6.01194">
        <ele>815.335449</ele>
        <time>2013-05-13T14:56:17Z</time>
      </trkpt>
      <trkpt lat="46.85624" lon="6.01196">
        <ele>814.374023</ele>
        <time>2013-05-13T14:56:33Z</time>
      </trkpt>
      <trkpt lat="46.85632" lon="6.01199">
        <ele>813.412842</ele>
        <time>2013-05-13T14:56:44Z</time>
      </trkpt>
      <trkpt lat="46.85645" lon="6.01189">
        <ele>811.970703</ele>
        <time>2013-05-13T14:57:06Z</time>
      </trkpt>
      <trkpt lat="46.85662" lon="6.01187">
        <ele>810.047852</ele>
        <time>2013-05-13T14:57:24Z</time>
      </trkpt>
      <trkpt lat="46.8567" lon="6.01184">
        <ele>809.567383</ele>
        <time>2013-05-13T14:57:31Z</time>
      </trkpt>
      <trkpt lat="46.85675" lon="6.01187">
        <ele>808.605957</ele>
        <time>2013-05-13T14:57:49Z</time>
      </trkpt>
      <trkpt lat="46.85692" lon="6.01192">
        <ele>805.722168</ele>
        <time>2013-05-13T14:58:13Z</time>
      </trkpt>
      <trkpt lat="46.85696" lon="6.01197">
        <ele>804.760742</ele>
        <time>2013-05-13T14:58:21Z</time>
      </trkpt>
      <trkpt lat="46.85708" lon="6.01219">
        <ele>804.280273</ele>
        <time>2013-05-13T14:58:37Z</time>
      </trkpt>
      <trkpt lat="46.85721" lon="6.01241">
        <ele>804.760742</ele>
        <time>2013-05-13T14:58:54Z</time>
      </trkpt>
      <trkpt lat="46.85731" lon="6.01262">
        <ele>806.68335</ele>
        <time>2013-05-13T14:59:12Z</time>
      </trkpt>
      <trkpt lat="46.85734" lon="6.01281">
        <ele>809.08667</ele>
        <time>2013-05-13T14:59:33Z</time>
      </trkpt>
      <trkpt lat="46.8574" lon="6.01287">
        <ele>811.009277</ele>
        <time>2013-05-13T14:59:49Z</time>
      </trkpt>
      <trkpt lat="46.85748" lon="6.01295">
        <ele>813.412842</ele>
        <time>2013-05-13T15:00:10Z</time>
      </trkpt>
      <trkpt lat="46.85772" lon="6.01295">
        <ele>814.374023</ele>
        <time>2013-05-13T15:00:31Z</time>
      </trkpt>
      <trkpt lat="46.85785" lon="6.0132">
        <ele>815.816162</ele>
        <time>2013-05-13T15:00:50Z</time>
      </trkpt>
      <trkpt lat="46.85796" lon="6.01334">
        <ele>816.296631</ele>
        <time>2013-05-13T15:01:08Z</time>
      </trkpt>
      <trkpt lat="46.85812" lon="6.01353">
        <ele>817.258057</ele>
        <time>2013-05-13T15:01:26Z</time>
      </trkpt>
      <trkpt lat="46.85825" lon="6.01362">
        <ele>817.258057</ele>
        <time>2013-05-13T15:01:42Z</time>
      </trkpt>
      <trkpt lat="46.85835" lon="6.01374">
        <ele>817.258057</ele>
        <time>2013-05-13T15:01:55Z</time>
      </trkpt>
      <trkpt lat="46.85844" lon="6.01392">
        <ele>817.738525</ele>
        <time>2013-05-13T15:02:16Z</time>
      </trkpt>
      <trkpt lat="46.85864" lon="6.01412">
        <ele>817.258057</ele>
        <time>2013-05-13T15:02:38Z</time>
      </trkpt>
      <trkpt lat="46.85872" lon="6.01422">
        <ele>817.258057</ele>
        <time>2013-05-13T15:02:52Z</time>
      </trkpt>
      <trkpt lat="46.85884" lon="6.01433">
        <ele>817.258057</ele>
        <time>2013-05-13T15:03:15Z</time>
      </trkpt>
      <trkpt lat="46.85891" lon="6.01443">
        <ele>817.258057</ele>
        <time>2013-05-13T15:03:22Z</time>
      </trkpt>
      <trkpt lat="46.85904" lon="6.01461">
        <ele>815.335449</ele>
        <time>2013-05-13T15:03:42Z</time>
      </trkpt>
      <trkpt lat="46.85926" lon="6.01482">
        <ele>816.777344</ele>
        <time>2013-05-13T15:04:02Z</time>
      </trkpt>
      <trkpt lat="46.85937" lon="6.01499">
        <ele>817.738525</ele>
        <time>2013-05-13T15:04:22Z</time>
      </trkpt>
      <trkpt lat="46.85954" lon="6.01505">
        <ele>817.738525</ele>
        <time>2013-05-13T15:04:37Z</time>
      </trkpt>
      <trkpt lat="46.8596" lon="6.01517">
        <ele>818.219238</ele>
        <time>2013-05-13T15:05:01Z</time>
      </trkpt>
      <trkpt lat="46.85967" lon="6.01521">
        <ele>819.180664</ele>
        <time>2013-05-13T15:05:45Z</time>
      </trkpt>
      <trkpt lat="46.85967" lon="6.01517">
        <ele>819.661377</ele>
        <time>2013-05-13T15:06:13Z</time>
      </trkpt>
      <trkpt lat="46.85968" lon="6.01509">
        <ele>818.699951</ele>
        <time>2013-05-13T15:08:00Z</time>
      </trkpt>
      <trkpt lat="46.85977" lon="6.01519">
        <ele>817.258057</ele>
        <time>2013-05-13T15:08:15Z</time>
      </trkpt>
      <trkpt lat="46.85975" lon="6.01524">
        <ele>818.219238</ele>
        <time>2013-05-13T15:08:31Z</time>
      </trkpt>
      <trkpt lat="46.85969" lon="6.01533">
        <ele>819.180664</ele>
        <time>2013-05-13T15:09:00Z</time>
      </trkpt>
      <trkpt lat="46.85969" lon="6.01537">
        <ele>816.296631</ele>
        <time>2013-05-13T15:10:44Z</time>
      </trkpt>
      <trkpt lat="46.85969" lon="6.01537">
        <ele>822.064453</ele>
        <time>2013-05-13T15:10:45Z</time>
      </trkpt>
      <trkpt lat="46.85969" lon="6.01537">
        <ele>820.622559</ele>
        <time>2013-05-13T15:10:46Z</time>
      </trkpt>
      <trkpt lat="46.85969" lon="6.01537">
        <ele>820.141846</ele>
        <time>2013-05-13T15:10:48Z</time>
      </trkpt>
      <trkpt lat="46.85972" lon="6.01529">
        <ele>821.103271</ele>
        <time>2013-05-13T15:13:45Z</time>
      </trkpt>
      <trkpt lat="46.85971" lon="6.01529">
        <ele>822.064453</ele>
        <time>2013-05-13T15:14:29Z</time>
      </trkpt>
      <trkpt lat="46.85965" lon="6.01514">
        <ele>821.103271</ele>
        <time>2013-05-13T15:14:49Z</time>
      </trkpt>
      <trkpt lat="46.85962" lon="6.01513">
        <ele>821.58374</ele>
        <time>2013-05-13T15:15:58Z</time>
      </trkpt>
      <trkpt lat="46.8597" lon="6.01509">
        <ele>822.545166</ele>
        <time>2013-05-13T15:17:53Z</time>
      </trkpt>
      <trkpt lat="46.85978" lon="6.01517">
        <ele>823.506592</ele>
        <time>2013-05-13T15:19:31Z</time>
      </trkpt>
      <trkpt lat="46.85974" lon="6.01537">
        <ele>826.871094</ele>
        <time>2013-05-13T15:19:54Z</time>
      </trkpt>
      <trkpt lat="46.85979" lon="6.01564">
        <ele>830.23584</ele>
        <time>2013-05-13T15:20:15Z</time>
      </trkpt>
      <trkpt lat="46.85982" lon="6.0158">
        <ele>829.755127</ele>
        <time>2013-05-13T15:20:31Z</time>
      </trkpt>
      <trkpt lat="46.85981" lon="6.01581">
        <ele>833.119629</ele>
        <time>2013-05-13T15:21:26Z</time>
      </trkpt>
      <trkpt lat="46.85956" lon="6.016">
        <ele>834.081055</ele>
        <time>2013-05-13T15:21:46Z</time>
      </trkpt>
      <trkpt lat="46.85949" lon="6.016">
        <ele>837.445557</ele>
        <time>2013-05-13T15:21:53Z</time>
      </trkpt>
      <trkpt lat="46.85936" lon="6.01604">
        <ele>841.290771</ele>
        <time>2013-05-13T15:22:17Z</time>
      </trkpt>
      <trkpt lat="46.85935" lon="6.01606">
        <ele>841.771484</ele>
        <time>2013-05-13T15:22:23Z</time>
      </trkpt>
      <trkpt lat="46.85933" lon="6.01618">
        <ele>844.655518</ele>
        <time>2013-05-13T15:22:40Z</time>
      </trkpt>
      <trkpt lat="46.85919" lon="6.01613">
        <ele>848.020264</ele>
        <time>2013-05-13T15:23:02Z</time>
      </trkpt>
      <trkpt lat="46.85919" lon="6.01613">
        <ele>848.500732</ele>
        <time>2013-05-13T15:23:03Z</time>
      </trkpt>
      <trkpt lat="46.85928" lon="6.01615">
        <ele>851.384766</ele>
        <time>2013-05-13T15:23:25Z</time>
      </trkpt>
      <trkpt lat="46.85929" lon="6.01625">
        <ele>853.307373</ele>
        <time>2013-05-13T15:23:50Z</time>
      </trkpt>
      <trkpt lat="46.85931" lon="6.0163">
        <ele>856.671875</ele>
        <time>2013-05-13T15:24:09Z</time>
      </trkpt>
      <trkpt lat="46.85937" lon="6.01634">
        <ele>860.036621</ele>
        <time>2013-05-13T15:24:21Z</time>
      </trkpt>
      <trkpt lat="46.85936" lon="6.01641">
        <ele>863.401367</ele>
        <time>2013-05-13T15:24:49Z</time>
      </trkpt>
      <trkpt lat="46.8593" lon="6.01652">
        <ele>866.285156</ele>
        <time>2013-05-13T15:25:00Z</time>
      </trkpt>
      <trkpt lat="46.8593" lon="6.01654">
        <ele>866.285156</ele>
        <time>2013-05-13T15:25:01Z</time>
      </trkpt>
      <trkpt lat="46.85924" lon="6.01664">
        <ele>867.727051</ele>
        <time>2013-05-13T15:25:07Z</time>
      </trkpt>
      <trkpt lat="46.85921" lon="6.01672">
        <ele>868.688477</ele>
        <time>2013-05-13T15:25:14Z</time>
      </trkpt>
      <trkpt lat="46.85909" lon="6.0169">
        <ele>870.611084</ele>
        <time>2013-05-13T15:25:32Z</time>
      </trkpt>
      <trkpt lat="46.85915" lon="6.01708">
        <ele>871.091797</ele>
        <time>2013-05-13T15:25:54Z</time>
      </trkpt>
      <trkpt lat="46.85921" lon="6.01729">
        <ele>871.091797</ele>
        <time>2013-05-13T15:26:13Z</time>
      </trkpt>
      <trkpt lat="46.85938" lon="6.01741">
        <ele>871.091797</ele>
        <time>2013-05-13T15:26:34Z</time>
      </trkpt>
      <trkpt lat="46.85954" lon="6.0175">
        <ele>870.130371</ele>
        <time>2013-05-13T15:26:52Z</time>
      </trkpt>
      <trkpt lat="46.85966" lon="6.01754">
        <ele>869.169189</ele>
        <time>2013-05-13T15:27:00Z</time>
      </trkpt>
      <trkpt lat="46.85978" lon="6.01762">
        <ele>869.169189</ele>
        <time>2013-05-13T15:27:16Z</time>
      </trkpt>
      <trkpt lat="46.85993" lon="6.01772">
        <ele>869.649902</ele>
        <time>2013-05-13T15:27:32Z</time>
      </trkpt>
      <trkpt lat="46.85993" lon="6.01768">
        <ele>869.649902</ele>
        <time>2013-05-13T15:28:29Z</time>
      </trkpt>
      <trkpt lat="46.85993" lon="6.01775">
        <ele>870.130371</ele>
        <time>2013-05-13T15:29:37Z</time>
      </trkpt>
      <trkpt lat="46.86012" lon="6.0179">
        <ele>870.611084</ele>
        <time>2013-05-13T15:30:10Z</time>
      </trkpt>
      <trkpt lat="46.86023" lon="6.018">
        <ele>871.091797</ele>
        <time>2013-05-13T15:30:27Z</time>
      </trkpt>
      <trkpt lat="46.86042" lon="6.01805">
        <ele>869.649902</ele>
        <time>2013-05-13T15:30:47Z</time>
      </trkpt>
      <trkpt lat="46.8605" lon="6.01802">
        <ele>866.765869</ele>
        <time>2013-05-13T15:31:01Z</time>
      </trkpt>
      <trkpt lat="46.86063" lon="6.01813">
        <ele>865.323975</ele>
        <time>2013-05-13T15:31:18Z</time>
      </trkpt>
      <trkpt lat="46.8607" lon="6.01828">
        <ele>865.323975</ele>
        <time>2013-05-13T15:31:34Z</time>
      </trkpt>
      <trkpt lat="46.86091" lon="6.01846">
        <ele>865.323975</ele>
        <time>2013-05-13T15:31:54Z</time>
      </trkpt>
      <trkpt lat="46.86106" lon="6.01863">
        <ele>864.362549</ele>
        <time>2013-05-13T15:32:10Z</time>
      </trkpt>
      <trkpt lat="46.86127" lon="6.01878">
        <ele>862.439941</ele>
        <time>2013-05-13T15:32:29Z</time>
      </trkpt>
      <trkpt lat="46.8615" lon="6.01898">
        <ele>860.036621</ele>
        <time>2013-05-13T15:32:53Z</time>
      </trkpt>
      <trkpt lat="46.86168" lon="6.01916">
        <ele>858.594482</ele>
        <time>2013-05-13T15:33:12Z</time>
      </trkpt>
      <trkpt lat="46.86188" lon="6.01928">
        <ele>857.633301</ele>
        <time>2013-05-13T15:33:34Z</time>
      </trkpt>
      <trkpt lat="46.86208" lon="6.01947">
        <ele>857.633301</ele>
        <time>2013-05-13T15:33:55Z</time>
      </trkpt>
      <trkpt lat="46.86232" lon="6.01963">
        <ele>856.671875</ele>
        <time>2013-05-13T15:34:15Z</time>
      </trkpt>
      <trkpt lat="46.86257" lon="6.01982">
        <ele>856.191162</ele>
        <time>2013-05-13T15:34:37Z</time>
      </trkpt>
      <trkpt lat="46.86271" lon="6.01992">
        <ele>854.268799</ele>
        <time>2013-05-13T15:34:56Z</time>
      </trkpt>
      <trkpt lat="46.86286" lon="6.02006">
        <ele>853.307373</ele>
        <time>2013-05-13T15:35:13Z</time>
      </trkpt>
      <trkpt lat="46.86311" lon="6.02022">
        <ele>852.345947</ele>
        <time>2013-05-13T15:35:36Z</time>
      </trkpt>
      <trkpt lat="46.86326" lon="6.02043">
        <ele>851.384766</ele>
        <time>2013-05-13T15:35:55Z</time>
      </trkpt>
      <trkpt lat="46.86337" lon="6.02055">
        <ele>850.904053</ele>
        <time>2013-05-13T15:36:06Z</time>
      </trkpt>
      <trkpt lat="46.86359" lon="6.0207">
        <ele>848.981445</ele>
        <time>2013-05-13T15:36:24Z</time>
      </trkpt>
      <trkpt lat="46.8636" lon="6.02063">
        <ele>848.020264</ele>
        <time>2013-05-13T15:36:31Z</time>
      </trkpt>
      <trkpt lat="46.86353" lon="6.02044">
        <ele>847.539551</ele>
        <time>2013-05-13T15:36:51Z</time>
      </trkpt>
      <trkpt lat="46.86353" lon="6.02037">
        <ele>847.058838</ele>
        <time>2013-05-13T15:37:20Z</time>
      </trkpt>
      <trkpt lat="46.86353" lon="6.02034">
        <ele>847.058838</ele>
        <time>2013-05-13T15:37:49Z</time>
      </trkpt>
      <trkpt lat="46.86358" lon="6.0205">
        <ele>848.020264</ele>
        <time>2013-05-13T15:39:01Z</time>
      </trkpt>
      <trkpt lat="46.86356" lon="6.02049">
        <ele>848.020264</ele>
        <time>2013-05-13T15:39:25Z</time>
      </trkpt>
      <trkpt lat="46.86352" lon="6.02047">
        <ele>848.020264</ele>
        <time>2013-05-13T15:40:03Z</time>
      </trkpt>
      <trkpt lat="46.86354" lon="6.0204">
        <ele>848.500732</ele>
        <time>2013-05-13T15:40:25Z</time>
      </trkpt>
      <trkpt lat="46.86352" lon="6.02035">
        <ele>847.539551</ele>
        <time>2013-05-13T15:40:49Z</time>
      </trkpt>
      <trkpt lat="46.86354" lon="6.02033">
        <ele>847.539551</ele>
        <time>2013-05-13T15:41:19Z</time>
      </trkpt>
      <trkpt lat="46.86356" lon="6.02034">
        <ele>847.539551</ele>
        <time>2013-05-13T15:41:48Z</time>
      </trkpt>
      <trkpt lat="46.8635" lon="6.02032">
        <ele>848.500732</ele>
        <time>2013-05-13T15:49:34Z</time>
      </trkpt>
      <trkpt lat="46.86347" lon="6.02027">
        <ele>848.500732</ele>
        <time>2013-05-13T15:49:39Z</time>
      </trkpt>
      <trkpt lat="46.86341" lon="6.02024">
        <ele>847.539551</ele>
        <time>2013-05-13T15:49:54Z</time>
      </trkpt>
      <trkpt lat="46.86336" lon="6.02016">
        <ele>847.058838</ele>
        <time>2013-05-13T15:50:03Z</time>
      </trkpt>
      <trkpt lat="46.86327" lon="6.01998">
        <ele>846.578369</ele>
        <time>2013-05-13T15:50:17Z</time>
      </trkpt>
      <trkpt lat="46.86318" lon="6.01981">
        <ele>845.13623</ele>
        <time>2013-05-13T15:50:29Z</time>
      </trkpt>
      <trkpt lat="46.86315" lon="6.01977">
        <ele>845.13623</ele>
        <time>2013-05-13T15:50:34Z</time>
      </trkpt>
      <trkpt lat="46.86304" lon="6.01959">
        <ele>844.175049</ele>
        <time>2013-05-13T15:50:48Z</time>
      </trkpt>
      <trkpt lat="46.86292" lon="6.01942">
        <ele>843.213379</ele>
        <time>2013-05-13T15:51:02Z</time>
      </trkpt>
      <trkpt lat="46.86283" lon="6.01924">
        <ele>841.771484</ele>
        <time>2013-05-13T15:51:13Z</time>
      </trkpt>
      <trkpt lat="46.86271" lon="6.019">
        <ele>840.32959</ele>
        <time>2013-05-13T15:51:30Z</time>
      </trkpt>
      <trkpt lat="46.86255" lon="6.01874">
        <ele>839.368164</ele>
        <time>2013-05-13T15:51:48Z</time>
      </trkpt>
      <trkpt lat="46.86242" lon="6.01852">
        <ele>837.92627</ele>
        <time>2013-05-13T15:52:04Z</time>
      </trkpt>
      <trkpt lat="46.86236" lon="6.01844">
        <ele>837.92627</ele>
        <time>2013-05-13T15:52:09Z</time>
      </trkpt>
      <trkpt lat="46.86216" lon="6.0181">
        <ele>836.484375</ele>
        <time>2013-05-13T15:52:28Z</time>
      </trkpt>
      <trkpt lat="46.86192" lon="6.01767">
        <ele>836.003662</ele>
        <time>2013-05-13T15:52:44Z</time>
      </trkpt>
      <trkpt lat="46.86189" lon="6.01762">
        <ele>836.003662</ele>
        <time>2013-05-13T15:52:47Z</time>
      </trkpt>
      <trkpt lat="46.86174" lon="6.01739">
        <ele>834.561768</ele>
        <time>2013-05-13T15:53:06Z</time>
      </trkpt>
      <trkpt lat="46.86163" lon="6.01715">
        <ele>834.081055</ele>
        <time>2013-05-13T15:53:23Z</time>
      </trkpt>
      <trkpt lat="46.8616" lon="6.01712">
        <ele>833.600342</ele>
        <time>2013-05-13T15:53:26Z</time>
      </trkpt>
      <trkpt lat="46.86141" lon="6.0169">
        <ele>833.119629</ele>
        <time>2013-05-13T15:53:46Z</time>
      </trkpt>
      <trkpt lat="46.86133" lon="6.01665">
        <ele>833.119629</ele>
        <time>2013-05-13T15:54:04Z</time>
      </trkpt>
      <trkpt lat="46.86122" lon="6.01633">
        <ele>832.63916</ele>
        <time>2013-05-13T15:54:24Z</time>
      </trkpt>
      <trkpt lat="46.8611" lon="6.01612">
        <ele>832.158447</ele>
        <time>2013-05-13T15:54:40Z</time>
      </trkpt>
      <trkpt lat="46.86088" lon="6.0158">
        <ele>832.63916</ele>
        <time>2013-05-13T15:55:01Z</time>
      </trkpt>
      <trkpt lat="46.86073" lon="6.01546">
        <ele>832.63916</ele>
        <time>2013-05-13T15:55:22Z</time>
      </trkpt>
      <trkpt lat="46.8606" lon="6.01525">
        <ele>832.158447</ele>
        <time>2013-05-13T15:55:42Z</time>
      </trkpt>
      <trkpt lat="46.86034" lon="6.01495">
        <ele>831.677734</ele>
        <time>2013-05-13T15:56:04Z</time>
      </trkpt>
      <trkpt lat="46.86029" lon="6.01493">
        <ele>831.677734</ele>
        <time>2013-05-13T15:56:07Z</time>
      </trkpt>
      <trkpt lat="46.85998" lon="6.0146">
        <ele>830.716553</ele>
        <time>2013-05-13T15:56:22Z</time>
      </trkpt>
      <trkpt lat="46.8599" lon="6.01455">
        <ele>830.23584</ele>
        <time>2013-05-13T15:56:27Z</time>
      </trkpt>
      <trkpt lat="46.85974" lon="6.01434">
        <ele>828.793945</ele>
        <time>2013-05-13T15:56:46Z</time>
      </trkpt>
      <trkpt lat="46.85965" lon="6.01419">
        <ele>828.313232</ele>
        <time>2013-05-13T15:57:02Z</time>
      </trkpt>
      <trkpt lat="46.8594" lon="6.014">
        <ele>825.909668</ele>
        <time>2013-05-13T15:57:25Z</time>
      </trkpt>
      <trkpt lat="46.85925" lon="6.01382">
        <ele>824.467773</ele>
        <time>2013-05-13T15:57:44Z</time>
      </trkpt>
      <trkpt lat="46.85905" lon="6.01359">
        <ele>823.506592</ele>
        <time>2013-05-13T15:58:03Z</time>
      </trkpt>
      <trkpt lat="46.85897" lon="6.01345">
        <ele>823.025879</ele>
        <time>2013-05-13T15:58:15Z</time>
      </trkpt>
      <trkpt lat="46.85882" lon="6.01325">
        <ele>821.103271</ele>
        <time>2013-05-13T15:58:32Z</time>
      </trkpt>
      <trkpt lat="46.85877" lon="6.01317">
        <ele>821.103271</ele>
        <time>2013-05-13T15:58:38Z</time>
      </trkpt>
      <trkpt lat="46.85873" lon="6.01311">
        <ele>820.141846</ele>
        <time>2013-05-13T15:58:44Z</time>
      </trkpt>
      <trkpt lat="46.85869" lon="6.01303">
        <ele>820.141846</ele>
        <time>2013-05-13T15:58:50Z</time>
      </trkpt>
      <trkpt lat="46.85865" lon="6.01298">
        <ele>819.180664</ele>
        <time>2013-05-13T15:58:55Z</time>
      </trkpt>
      <trkpt lat="46.85848" lon="6.01275">
        <ele>817.738525</ele>
        <time>2013-05-13T15:59:15Z</time>
      </trkpt>
      <trkpt lat="46.85829" lon="6.01246">
        <ele>815.335449</ele>
        <time>2013-05-13T15:59:35Z</time>
      </trkpt>
      <trkpt lat="46.8581" lon="6.01229">
        <ele>814.374023</ele>
        <time>2013-05-13T15:59:50Z</time>
      </trkpt>
      <trkpt lat="46.85797" lon="6.01215">
        <ele>813.412842</ele>
        <time>2013-05-13T16:00:05Z</time>
      </trkpt>
      <trkpt lat="46.85777" lon="6.01203">
        <ele>811.48999</ele>
        <time>2013-05-13T16:00:22Z</time>
      </trkpt>
      <trkpt lat="46.85759" lon="6.01194">
        <ele>810.047852</ele>
        <time>2013-05-13T16:00:40Z</time>
      </trkpt>
      <trkpt lat="46.85734" lon="6.01171">
        <ele>808.125488</ele>
        <time>2013-05-13T16:01:01Z</time>
      </trkpt>
      <trkpt lat="46.8572" lon="6.01153">
        <ele>806.68335</ele>
        <time>2013-05-13T16:01:14Z</time>
      </trkpt>
      <trkpt lat="46.85717" lon="6.01148">
        <ele>806.68335</ele>
        <time>2013-05-13T16:01:18Z</time>
      </trkpt>
      <trkpt lat="46.85704" lon="6.0112">
        <ele>804.760742</ele>
        <time>2013-05-13T16:01:38Z</time>
      </trkpt>
      <trkpt lat="46.85685" lon="6.01098">
        <ele>803.799561</ele>
        <time>2013-05-13T16:01:57Z</time>
      </trkpt>
      <trkpt lat="46.85667" lon="6.01081">
        <ele>803.799561</ele>
        <time>2013-05-13T16:02:13Z</time>
      </trkpt>
      <trkpt lat="46.85653" lon="6.01049">
        <ele>802.838135</ele>
        <time>2013-05-13T16:02:26Z</time>
      </trkpt>
      <trkpt lat="46.85648" lon="6.01038">
        <ele>802.357422</ele>
        <time>2013-05-13T16:02:31Z</time>
      </trkpt>
      <trkpt lat="46.85639" lon="6.01024">
        <ele>802.357422</ele>
        <time>2013-05-13T16:02:42Z</time>
      </trkpt>
      <trkpt lat="46.85633" lon="6.01017">
        <ele>802.357422</ele>
        <time>2013-05-13T16:02:49Z</time>
      </trkpt>
      <trkpt lat="46.85622" lon="6.01">
        <ele>801.39624</ele>
        <time>2013-05-13T16:03:04Z</time>
      </trkpt>
      <trkpt lat="46.8561" lon="6.00984">
        <ele>800.435059</ele>
        <time>2013-05-13T16:03:19Z</time>
      </trkpt>
      <trkpt lat="46.8559" lon="6.00964">
        <ele>799.473633</ele>
        <time>2013-05-13T16:03:39Z</time>
      </trkpt>
      <trkpt lat="46.85575" lon="6.00948">
        <ele>798.99292</ele>
        <time>2013-05-13T16:03:56Z</time>
      </trkpt>
      <trkpt lat="46.85552" lon="6.00934">
        <ele>797.551025</ele>
        <time>2013-05-13T16:04:18Z</time>
      </trkpt>
      <trkpt lat="46.85522" lon="6.00906">
        <ele>796.109131</ele>
        <time>2013-05-13T16:04:43Z</time>
      </trkpt>
      <trkpt lat="46.855" lon="6.00884">
        <ele>794.666748</ele>
        <time>2013-05-13T16:05:03Z</time>
      </trkpt>
      <trkpt lat="46.85499" lon="6.00883">
        <ele>794.186279</ele>
        <time>2013-05-13T16:05:04Z</time>
      </trkpt>
      <trkpt lat="46.85481" lon="6.00868">
        <ele>793.705566</ele>
        <time>2013-05-13T16:05:21Z</time>
      </trkpt>
      <trkpt lat="46.85451" lon="6.00851">
        <ele>791.782959</ele>
        <time>2013-05-13T16:05:45Z</time>
      </trkpt>
      <trkpt lat="46.85428" lon="6.00838">
        <ele>790.341064</ele>
        <time>2013-05-13T16:06:04Z</time>
      </trkpt>
      <trkpt lat="46.85407" lon="6.00813">
        <ele>788.89917</ele>
        <time>2013-05-13T16:06:22Z</time>
      </trkpt>
      <trkpt lat="46.8539" lon="6.0079">
        <ele>787.937744</ele>
        <time>2013-05-13T16:06:40Z</time>
      </trkpt>
      <trkpt lat="46.85371" lon="6.00764">
        <ele>787.457031</ele>
        <time>2013-05-13T16:07:00Z</time>
      </trkpt>
      <trkpt lat="46.85354" lon="6.00734">
        <ele>786.976318</ele>
        <time>2013-05-13T16:07:20Z</time>
      </trkpt>
      <trkpt lat="46.85351" lon="6.00723">
        <ele>786.015137</ele>
        <time>2013-05-13T16:07:26Z</time>
      </trkpt>
      <trkpt lat="46.85338" lon="6.007">
        <ele>786.015137</ele>
        <time>2013-05-13T16:07:45Z</time>
      </trkpt>
      <trkpt lat="46.85333" lon="6.00693">
        <ele>785.534424</ele>
        <time>2013-05-13T16:08:04Z</time>
      </trkpt>
      <trkpt lat="46.8533" lon="6.00699">
        <ele>785.534424</ele>
        <time>2013-05-13T16:08:36Z</time>
      </trkpt>
      <trkpt lat="46.85328" lon="6.00699">
        <ele>785.534424</ele>
        <time>2013-05-13T16:08:57Z</time>
      </trkpt>
      <trkpt lat="46.85326" lon="6.00683">
        <ele>785.053955</ele>
        <time>2013-05-13T16:09:20Z</time>
      </trkpt>
      <trkpt lat="46.85318" lon="6.00692">
        <ele>785.053955</ele>
        <time>2013-05-13T16:09:40Z</time>
      </trkpt>
      <trkpt lat="46.85297" lon="6.0072">
        <ele>785.534424</ele>
        <time>2013-05-13T16:10:06Z</time>
      </trkpt>
      <trkpt lat="46.85279" lon="6.00729">
        <ele>786.015137</ele>
        <time>2013-05-13T16:10:19Z</time>
      </trkpt>
      <trkpt lat="46.85258" lon="6.00728">
        <ele>786.49585</ele>
        <time>2013-05-13T16:10:37Z</time>
      </trkpt>
      <trkpt lat="46.85249" lon="6.00722">
        <ele>787.457031</ele>
        <time>2013-05-13T16:10:46Z</time>
      </trkpt>
      <trkpt lat="46.85244" lon="6.00717">
        <ele>786.49585</ele>
        <time>2013-05-13T16:10:48Z</time>
      </trkpt>
      <trkpt lat="46.85227" lon="6.0071">
        <ele>786.976318</ele>
        <time>2013-05-13T16:11:02Z</time>
      </trkpt>
      <trkpt lat="46.85224" lon="6.00705">
        <ele>786.976318</ele>
        <time>2013-05-13T16:11:07Z</time>
      </trkpt>
      <trkpt lat="46.85202" lon="6.00694">
        <ele>787.457031</ele>
        <time>2013-05-13T16:11:29Z</time>
      </trkpt>
      <trkpt lat="46.85184" lon="6.00682">
        <ele>787.937744</ele>
        <time>2013-05-13T16:11:49Z</time>
      </trkpt>
      <trkpt lat="46.85163" lon="6.00679">
        <ele>788.89917</ele>
        <time>2013-05-13T16:12:06Z</time>
      </trkpt>
      <trkpt lat="46.85148" lon="6.00668">
        <ele>788.89917</ele>
        <time>2013-05-13T16:12:18Z</time>
      </trkpt>
      <trkpt lat="46.85142" lon="6.00661">
        <ele>788.418457</ele>
        <time>2013-05-13T16:12:26Z</time>
      </trkpt>
      <trkpt lat="46.85132" lon="6.0065">
        <ele>786.976318</ele>
        <time>2013-05-13T16:12:48Z</time>
      </trkpt>
      <trkpt lat="46.85119" lon="6.00638">
        <ele>786.015137</ele>
        <time>2013-05-13T16:12:59Z</time>
      </trkpt>
      <trkpt lat="46.851" lon="6.00624">
        <ele>785.053955</ele>
        <time>2013-05-13T16:13:18Z</time>
      </trkpt>
      <trkpt lat="46.85073" lon="6.00606">
        <ele>784.573242</ele>
        <time>2013-05-13T16:13:42Z</time>
      </trkpt>
      <trkpt lat="46.85053" lon="6.00589">
        <ele>784.092529</ele>
        <time>2013-05-13T16:14:00Z</time>
      </trkpt>
      <trkpt lat="46.85035" lon="6.00589">
        <ele>784.092529</ele>
        <time>2013-05-13T16:14:17Z</time>
      </trkpt>
      <trkpt lat="46.85006" lon="6.00585">
        <ele>783.131104</ele>
        <time>2013-05-13T16:14:41Z</time>
      </trkpt>
      <trkpt lat="46.85005" lon="6.00585">
        <ele>783.131104</ele>
        <time>2013-05-13T16:14:42Z</time>
      </trkpt>
      <trkpt lat="46.84986" lon="6.00578">
        <ele>782.169922</ele>
        <time>2013-05-13T16:14:59Z</time>
      </trkpt>
      <trkpt lat="46.84961" lon="6.00565">
        <ele>779.285645</ele>
        <time>2013-05-13T16:15:22Z</time>
      </trkpt>
      <trkpt lat="46.84953" lon="6.00565">
        <ele>777.84375</ele>
        <time>2013-05-13T16:15:30Z</time>
      </trkpt>
      <trkpt lat="46.84941" lon="6.00558">
        <ele>774.959961</ele>
        <time>2013-05-13T16:15:46Z</time>
      </trkpt>
      <trkpt lat="46.84929" lon="6.00552">
        <ele>773.998535</ele>
        <time>2013-05-13T16:15:56Z</time>
      </trkpt>
      <trkpt lat="46.8492" lon="6.00524">
        <ele>773.518066</ele>
        <time>2013-05-13T16:16:11Z</time>
      </trkpt>
      <trkpt lat="46.84918" lon="6.00521">
        <ele>773.518066</ele>
        <time>2013-05-13T16:16:15Z</time>
      </trkpt>
      <trkpt lat="46.84909" lon="6.00521">
        <ele>771.595215</ele>
        <time>2013-05-13T16:16:28Z</time>
      </trkpt>
      <trkpt lat="46.84894" lon="6.00518">
        <ele>768.230713</ele>
        <time>2013-05-13T16:16:45Z</time>
      </trkpt>
      <trkpt lat="46.84885" lon="6.00517">
        <ele>765.346924</ele>
        <time>2013-05-13T16:17:00Z</time>
      </trkpt>
      <trkpt lat="46.84876" lon="6.00524">
        <ele>762.943359</ele>
        <time>2013-05-13T16:17:17Z</time>
      </trkpt>
      <trkpt lat="46.84861" lon="6.00521">
        <ele>759.578857</ele>
        <time>2013-05-13T16:17:36Z</time>
      </trkpt>
      <trkpt lat="46.84847" lon="6.00524">
        <ele>756.694824</ele>
        <time>2013-05-13T16:17:53Z</time>
      </trkpt>
      <trkpt lat="46.84837" lon="6.00539">
        <ele>754.291748</ele>
        <time>2013-05-13T16:18:09Z</time>
      </trkpt>
      <trkpt lat="46.84832" lon="6.00554">
        <ele>751.407715</ele>
        <time>2013-05-13T16:18:24Z</time>
      </trkpt>
      <trkpt lat="46.84815" lon="6.00567">
        <ele>748.523682</ele>
        <time>2013-05-13T16:18:43Z</time>
      </trkpt>
      <trkpt lat="46.84802" lon="6.00583">
        <ele>745.158936</ele>
        <time>2013-05-13T16:19:00Z</time>
      </trkpt>
      <trkpt lat="46.84796" lon="6.00594">
        <ele>743.717041</ele>
        <time>2013-05-13T16:19:07Z</time>
      </trkpt>
      <trkpt lat="46.84783" lon="6.00606">
        <ele>742.755859</ele>
        <time>2013-05-13T16:19:25Z</time>
      </trkpt>
      <trkpt lat="46.84763" lon="6.00633">
        <ele>740.833008</ele>
        <time>2013-05-13T16:19:45Z</time>
      </trkpt>
      <trkpt lat="46.8475" lon="6.00649">
        <ele>738.429932</ele>
        <time>2013-05-13T16:20:05Z</time>
      </trkpt>
      <trkpt lat="46.84736" lon="6.0066">
        <ele>737.949219</ele>
        <time>2013-05-13T16:20:26Z</time>
      </trkpt>
      <trkpt lat="46.84722" lon="6.0067">
        <ele>737.949219</ele>
        <time>2013-05-13T16:20:39Z</time>
      </trkpt>
      <trkpt lat="46.84715" lon="6.00672">
        <ele>737.949219</ele>
        <time>2013-05-13T16:20:53Z</time>
      </trkpt>
      <trkpt lat="46.84711" lon="6.00669">
        <ele>737.949219</ele>
        <time>2013-05-13T16:21:03Z</time>
      </trkpt>
      <trkpt lat="46.84709" lon="6.00666">
        <ele>737.949219</ele>
        <time>2013-05-13T16:21:16Z</time>
      </trkpt>
      <trkpt lat="46.84705" lon="6.00658">
        <ele>737.949219</ele>
        <time>2013-05-13T16:21:25Z</time>
      </trkpt>
    </trkseg>
  </trk>
</gpx>